Observation data for Estelline on 08/19/2019      Previous  Date       Current Mesonet Observations  Soil Data  Daily Summary Page  Observations in Plain Language
KES1 190500Z 11008KT 28/18 A299 RMK A01 T02840182  RH  054%=      5-min Rain = 0
KES1 190501Z 13009KT 28/18 A299 RMK A01 T02800177  RH  053%=      5-min Rain = 0
KES1 190502Z 14008KT 28/17 A299 RMK A01 T02830171  RH  050%=      5-min Rain = 0
KES1 190503Z 14012KT 29/18 A299 RMK A01 T02860176  RH  051%=      5-min Rain = 0
KES1 190504Z 14015KT 29/17 A299 RMK A01 T02870173  RH  050%=      5-min Rain = 0
KES1 190505Z 13015KT 29/17 A299 RMK A01 T02890173  RH  050%=      5-min Rain = 0
KES1 190506Z 13016KT 29/17 A299 RMK A01 T02900171  RH  049%=      5-min Rain = 0
KES1 190507Z 13016G21KT 29/17 A299 RMK A01 T02930172  RH  048%=      5-min Rain = 0
KES1 190508Z 13014KT 29/18 A299 RMK A01 T02930175  RH  049%=      5-min Rain = 0
KES1 190509Z 13017KT 29/18 A299 RMK A01 T02900175  RH  050%=      5-min Rain = 0
KES1 190510Z 13016KT 29/17 A299 RMK A01 T02900173  RH  049%=      5-min Rain = 0
KES1 190511Z 13016G21KT 29/17 A299 RMK A01 T02900174  RH  049%=      5-min Rain = 0
KES1 190512Z 13016KT 29/18 A299 RMK A01 T02900175  RH  050%=      5-min Rain = 0
KES1 190513Z 14016KT 29/18 A299 RMK A01 T02900178  RH  051%=      5-min Rain = 0
KES1 190514Z 14017KT 29/18 A299 RMK A01 T02890180  RH  052%=      5-min Rain = 0
KES1 190515Z 13016KT 29/18 A2989 RMK A01 T02890179  RH  051%=      5-min Rain = 0
KES1 190516Z 13017KT 29/18 A2989 RMK A01 T02890181  RH  052%=      5-min Rain = 0
KES1 190517Z 13016KT 29/18 A2989 RMK A01 T02890183  RH  053%=      5-min Rain = 0
KES1 190518Z 13018G24KT 29/18 A2989 RMK A01 T02870183  RH  053%=      5-min Rain = 0
KES1 190519Z 13017KT 29/18 A2988 RMK A01 T02870181  RH  053%=      5-min Rain = 0
KES1 190520Z 13016KT 29/18 A2988 RMK A01 T02880184  RH  054%=      5-min Rain = 0
KES1 190521Z 13017G24KT 29/19 A2988 RMK A01 T02860185  RH  054%=      5-min Rain = 0
KES1 190522Z 13017KT 28/19 A2988 RMK A01 T02840185  RH  055%=      5-min Rain = 0
KES1 190523Z 13017KT 28/19 A2988 RMK A01 T02820187  RH  056%=      5-min Rain = 0
KES1 190524Z 13018KT 28/19 A2987 RMK A01 T02810187  RH  057%=      5-min Rain = 0
KES1 190525Z 14019KT 28/19 A2987 RMK A01 T02800188  RH  057%=      5-min Rain = 0
KES1 190526Z 14017KT 28/19 A2987 RMK A01 T02790189  RH  058%=      5-min Rain = 0
KES1 190527Z 14020KT 28/19 A2987 RMK A01 T02780189  RH  058%=      5-min Rain = 0
KES1 190528Z 14019G24KT 28/19 A2987 RMK A01 T02790188  RH  058%=      5-min Rain = 0
KES1 190529Z 14019KT 28/19 A2987 RMK A01 T02800188  RH  057%=      5-min Rain = 0
KES1 190530Z 15018KT 28/19 A2987 RMK A01 T02810189  RH  057%=      5-min Rain = 0
KES1 190531Z 15016KT 28/19 A2987 RMK A01 T02810191  RH  058%=      5-min Rain = 0
KES1 190532Z 14017KT 28/19 A2987 RMK A01 T02800191  RH  059%=      5-min Rain = 0
KES1 190533Z 14016KT 28/19 A2987 RMK A01 T02790191  RH  059%=      5-min Rain = 0
KES1 190534Z 15017KT 28/19 A2987 RMK A01 T02790192  RH  059%=      5-min Rain = 0
KES1 190535Z 14017KT 28/19 A2987 RMK A01 T02780191  RH  059%=      5-min Rain = 0
KES1 190536Z 15016KT 28/19 A2987 RMK A01 T02790190  RH  059%=      5-min Rain = 0
KES1 190537Z 15017G22KT 28/19 A2987 RMK A01 T02800190  RH  058%=      5-min Rain = 0
KES1 190538Z 14016KT 28/19 A2987 RMK A01 T02810190  RH  057%=      5-min Rain = 0
KES1 190539Z 14018KT 28/19 A2987 RMK A01 T02840189  RH  057%=      5-min Rain = 0
KES1 190540Z 14017KT 29/19 A2987 RMK A01 T02850188  RH  056%=      5-min Rain = 0
KES1 190541Z 14017KT 29/19 A2987 RMK A01 T02870188  RH  055%=      5-min Rain = 0
KES1 190542Z 14015KT 29/19 A2987 RMK A01 T02870189  RH  055%=      5-min Rain = 0
KES1 190543Z 14015KT 29/19 A2988 RMK A01 T02870190  RH  056%=      5-min Rain = 0
KES1 190544Z 14013KT 29/19 A2988 RMK A01 T02860190  RH  056%=      5-min Rain = 0
KES1 190545Z 14012KT 29/19 A2988 RMK A01 T02860190  RH  056%=      5-min Rain = 0
KES1 190546Z 15013KT 29/19 A2988 RMK A01 T02850190  RH  056%=      5-min Rain = 0
KES1 190547Z 15011KT 29/19 A2989 RMK A01 T02850191  RH  057%=      5-min Rain = 0
KES1 190548Z 14010KT 28/19 A2989 RMK A01 T02840191  RH  057%=      5-min Rain = 0
KES1 190549Z 14013KT 28/19 A2989 RMK A01 T02830190  RH  057%=      5-min Rain = 0
KES1 190550Z 14012KT 28/19 A2989 RMK A01 T02830190  RH  057%=      5-min Rain = 0
KES1 190551Z 14012KT 28/19 A2989 RMK A01 T02830190  RH  057%=      5-min Rain = 0
KES1 190552Z 14011KT 28/19 A2989 RMK A01 T02830190  RH  057%=      5-min Rain = 0
KES1 190553Z 14010KT 28/19 A2989 RMK A01 T02830190  RH  057%=      5-min Rain = 0
KES1 190554Z 14010KT 28/19 A299 RMK A01 T02830190  RH  057%=      5-min Rain = 0
KES1 190555Z 14012G17KT 28/19 A299 RMK A01 T02820191  RH  058%=      5-min Rain = 0
KES1 190556Z 14011KT 28/19 A2989 RMK A01 T02820190  RH  057%=      5-min Rain = 0
KES1 190557Z 15010KT 28/19 A2989 RMK A01 T02810191  RH  058%=      5-min Rain = 0
KES1 190558Z 16010G15KT 28/19 A2989 RMK A01 T02810190  RH  058%=      5-min Rain = 0
KES1 190559Z 15015KT 28/19 A2989 RMK A01 T02800190  RH  058%=      5-min Rain = 0
KES1 190600Z 15014G21KT 28/19 A2989 RMK A01 T02810188  RH  057%=      5-min Rain = 0
KES1 190601Z 15015KT 28/19 A2989 RMK A01 T02810187  RH  057%=      5-min Rain = 0
KES1 190602Z 15016KT 28/19 A2989 RMK A01 T02820187  RH  057%=      5-min Rain = 0
KES1 190603Z 15013KT 28/19 A2989 RMK A01 T02820188  RH  056%=      5-min Rain = 0
KES1 190604Z 15013KT 28/19 A299 RMK A01 T02820188  RH  057%=      5-min Rain = 0
KES1 190605Z 15012KT 28/19 A299 RMK A01 T02820189  RH  057%=      5-min Rain = 0
KES1 190606Z 15013KT 28/19 A299 RMK A01 T02810189  RH  057%=      5-min Rain = 0
KES1 190607Z 14012G17KT 28/19 A299 RMK A01 T02810188  RH  057%=      5-min Rain = 0
KES1 190608Z 14015KT 28/19 A299 RMK A01 T02820187  RH  056%=      5-min Rain = 0
KES1 190609Z 14014KT 28/19 A299 RMK A01 T02840188  RH  056%=      5-min Rain = 0
KES1 190610Z 14014KT 29/19 A2989 RMK A01 T02860185  RH  054%=      5-min Rain = 0
KES1 190611Z 13012KT 29/18 A2989 RMK A01 T02880182  RH  053%=      5-min Rain = 0
KES1 190612Z 13017G22KT 29/17 A2989 RMK A01 T02910174  RH  049%=      5-min Rain = 0
KES1 190613Z 13016G21KT 30/17 A2989 RMK A01 T02950168  RH  046%=      5-min Rain = 0
KES1 190614Z 14017KT 30/17 A2989 RMK A01 T02980170  RH  046%=      5-min Rain = 0
KES1 190615Z 13015KT 30/17 A2989 RMK A01 T02990173  RH  047%=      5-min Rain = 0
KES1 190616Z 14018KT 30/17 A2989 RMK A01 T02980169  RH  046%=      5-min Rain = 0
KES1 190617Z 13013KT 30/17 A2989 RMK A01 T02980168  RH  046%=      5-min Rain = 0
KES1 190618Z 13010KT 30/17 A2989 RMK A01 T02980167  RH  045%=      5-min Rain = 0
KES1 190619Z 13011KT 30/17 A2989 RMK A01 T02980168  RH  046%=      5-min Rain = 0
KES1 190620Z 12010KT 30/17 A2989 RMK A01 T02980170  RH  046%=      5-min Rain = 0
KES1 190621Z 13010KT 30/17 A2989 RMK A01 T02960171  RH  047%=      5-min Rain = 0
KES1 190622Z 14011KT 30/17 A2989 RMK A01 T02950170  RH  047%=      5-min Rain = 0
KES1 190623Z 13007G12KT 30/17 A2989 RMK A01 T02950170  RH  047%=      5-min Rain = 0
KES1 190624Z 12009G14KT 30/17 A2989 RMK A01 T02950172  RH  048%=      5-min Rain = 0
KES1 190625Z 11009KT 29/17 A2989 RMK A01 T02930173  RH  048%=      5-min Rain = 0
KES1 190626Z 11010KT 29/17 A2989 RMK A01 T02920173  RH  049%=      5-min Rain = 0
KES1 190627Z 10009KT 29/17 A2989 RMK A01 T02910172  RH  048%=      5-min Rain = 0
KES1 190628Z 10007KT 29/17 A299 RMK A01 T02910174  RH  049%=      5-min Rain = 0
KES1 190629Z 11006KT 29/18 A299 RMK A01 T02890176  RH  050%=      5-min Rain = 0
KES1 190630Z 12005KT 29/18 A299 RMK A01 T02880176  RH  051%=      5-min Rain = 0
KES1 190631Z 13005KT 29/18 A299 RMK A01 T02860177  RH  052%=      5-min Rain = 0
KES1 190632Z 13003KT 29/18 A299 RMK A01 T02850176  RH  052%=      5-min Rain = 0
KES1 190633Z 15003KT 29/18 A299 RMK A01 T02850175  RH  051%=      5-min Rain = 0
KES1 190634Z 15003KT 29/17 A2991 RMK A01 T02850172  RH  050%=      5-min Rain = 0
KES1 190635Z 14002KT 29/17 A2991 RMK A01 T02860172  RH  050%=      5-min Rain = 0
KES1 190636Z 16001KT 29/17 A2991 RMK A01 T02870172  RH  050%=      5-min Rain = 0
KES1 190637Z 30002KT 29/17 A2991 RMK A01 T02880174  RH  050%=      5-min Rain = 0
KES1 190638Z 21002KT 29/17 A2991 RMK A01 T02870170  RH  049%=      5-min Rain = 0
KES1 190639Z 29003KT 29/17 A2991 RMK A01 T02880172  RH  049%=      5-min Rain = 0
KES1 190640Z 28003KT 29/17 A2991 RMK A01 T02890171  RH  049%=      5-min Rain = 0
KES1 190641Z 30004KT 29/17 A2991 RMK A01 T02900166  RH  047%=      5-min Rain = 0
KES1 190642Z 28007KT 29/17 A2991 RMK A01 T02920174  RH  049%=      5-min Rain = 0
KES1 190643Z 29003KT 29/17 A2992 RMK A01 T02920171  RH  048%=      5-min Rain = 0
KES1 190644Z 29004KT 29/17 A2992 RMK A01 T02930166  RH  047%=      5-min Rain = 0
KES1 190645Z 26004KT 29/17 A2992 RMK A01 T02940170  RH  047%=      5-min Rain = 0
KES1 190646Z 19003KT 30/17 A2992 RMK A01 T02950167  RH  046%=      5-min Rain = 0
KES1 190647Z 13003KT 30/17 A2992 RMK A01 T02950166  RH  046%=      5-min Rain = 0
KES1 190648Z 10004KT 30/17 A2992 RMK A01 T02960169  RH  046%=      5-min Rain = 0
KES1 190649Z 07006KT 30/17 A2992 RMK A01 T02960170  RH  047%=      5-min Rain = 0
KES1 190650Z 10007KT 30/17 A2992 RMK A01 T02950170  RH  047%=      5-min Rain = 0
KES1 190651Z 10008KT 30/17 A2992 RMK A01 T02950168  RH  047%=      5-min Rain = 0
KES1 190652Z 11009KT 30/17 A2992 RMK A01 T02950171  RH  047%=      5-min Rain = 0
KES1 190653Z 14011G16KT 29/17 A2992 RMK A01 T02930173  RH  048%=      5-min Rain = 0
KES1 190654Z 15014KT 29/17 A2991 RMK A01 T02920170  RH  048%=      5-min Rain = 0
KES1 190655Z 13012KT 29/17 A2991 RMK A01 T02920170  RH  048%=      5-min Rain = 0
KES1 190656Z 13012KT 29/17 A2991 RMK A01 T02910174  RH  049%=      5-min Rain = 0
KES1 190657Z 13014KT 29/17 A2991 RMK A01 T02890172  RH  049%=      5-min Rain = 0
KES1 190658Z 13015KT 29/17 A2991 RMK A01 T02880171  RH  049%=      5-min Rain = 0
KES1 190659Z 13015KT 29/17 A299 RMK A01 T02880172  RH  050%=      5-min Rain = 0
KES1 190700Z 14015KT 29/17 A299 RMK A01 T02870172  RH  050%=      5-min Rain = 0
KES1 190701Z 14017KT 29/17 A299 RMK A01 T02860173  RH  050%=      5-min Rain = 0
KES1 190702Z 13019G24KT 29/17 A299 RMK A01 T02870169  RH  049%=      5-min Rain = 0
KES1 190703Z 14021KT 29/17 A299 RMK A01 T02920166  RH  047%=      5-min Rain = 0
KES1 190704Z 14021KT 30/17 A2989 RMK A01 T02950166  RH  046%=      5-min Rain = 0
KES1 190705Z 15020KT 30/17 A2989 RMK A01 T02970168  RH  046%=      5-min Rain = 0
KES1 190706Z 16017G22KT 30/17 A2989 RMK A01 T02960171  RH  047%=      5-min Rain = 0
KES1 190707Z 15021KT 29/17 A2989 RMK A01 T02940169  RH  047%=      5-min Rain = 0
KES1 190708Z 16019KT 29/17 A2988 RMK A01 T02940172  RH  048%=      5-min Rain = 0
KES1 190709Z 16020G26KT 29/17 A2988 RMK A01 T02910174  RH  049%=      5-min Rain = 0
KES1 190710Z 16022G28KT 29/17 A2988 RMK A01 T02880170  RH  049%=      5-min Rain = 0
KES1 190711Z 16019G26KT 29/17 A2988 RMK A01 T02910170  RH  048%=      5-min Rain = 0
KES1 190712Z 16019KT 29/18 A2988 RMK A01 T02890176  RH  050%=      5-min Rain = 0
KES1 190713Z 16019KT 28/18 A2988 RMK A01 T02840177  RH  052%=      5-min Rain = 0
KES1 190714Z 16017KT 28/18 A2988 RMK A01 T02810177  RH  053%=      5-min Rain = 0
KES1 190715Z 16016G23KT 28/18 A2987 RMK A01 T02790178  RH  054%=      5-min Rain = 0
KES1 190716Z 16019G25KT 28/18 A2987 RMK A01 T02770177  RH  054%=      5-min Rain = 0
KES1 190717Z 16020KT 28/18 A2987 RMK A01 T02770177  RH  055%=      5-min Rain = 0
KES1 190718Z 15018KT 28/18 A2987 RMK A01 T02770179  RH  055%=      5-min Rain = 0
KES1 190719Z 15017G23KT 28/18 A2987 RMK A01 T02760182  RH  056%=      5-min Rain = 0
KES1 190720Z 16016G21KT 27/18 A2987 RMK A01 T02720183  RH  058%=      5-min Rain = 0
KES1 190721Z 16019G24KT 27/18 A2987 RMK A01 T02700183  RH  059%=      5-min Rain = 0
KES1 190722Z 16022KT 27/18 A2987 RMK A01 T02690181  RH  059%=      5-min Rain = 0
KES1 190723Z 16022KT 27/18 A2986 RMK A01 T02710179  RH  057%=      5-min Rain = 0
KES1 190724Z 16021G26KT 27/18 A2986 RMK A01 T02730179  RH  056%=      5-min Rain = 0
KES1 190725Z 16022G27KT 28/18 A2986 RMK A01 T02750179  RH  056%=      5-min Rain = 0
KES1 190726Z 16022KT 28/18 A2986 RMK A01 T02750178  RH  056%=      5-min Rain = 0
KES1 190727Z 16024KT 28/18 A2986 RMK A01 T02760178  RH  055%=      5-min Rain = 0
KES1 190728Z 16022G27KT 28/18 A2986 RMK A01 T02780177  RH  054%=      5-min Rain = 0
KES1 190729Z 16024G32KT 28/17 A2986 RMK A01 T02810174  RH  052%=      5-min Rain = 0
KES1 190730Z 16022G30KT 29/17 A2986 RMK A01 T02850172  RH  050%=      5-min Rain = 0
KES1 190731Z 17023G30KT 29/17 A2986 RMK A01 T02900171  RH  049%=      5-min Rain = 0
KES1 190732Z 16021G27KT 29/17 A2986 RMK A01 T02930171  RH  048%=      5-min Rain = 0
KES1 190733Z 17021KT 30/17 A2987 RMK A01 T02950171  RH  047%=      5-min Rain = 0
KES1 190734Z 17018KT 30/17 A2987 RMK A01 T02950172  RH  047%=      5-min Rain = 0
KES1 190735Z 17017KT 30/17 A2987 RMK A01 T02960174  RH  048%=      5-min Rain = 0
KES1 190736Z 17017KT 29/17 A2987 RMK A01 T02940174  RH  048%=      5-min Rain = 0
KES1 190737Z 18017KT 29/17 A2988 RMK A01 T02930174  RH  049%=      5-min Rain = 0
KES1 190738Z 18014KT 29/18 A2988 RMK A01 T02910175  RH  050%=      5-min Rain = 0
KES1 190739Z 18011G16KT 29/18 A2988 RMK A01 T02880176  RH  051%=      5-min Rain = 0
KES1 190740Z 18012KT 29/18 A2988 RMK A01 T02860177  RH  052%=      5-min Rain = 0
KES1 190741Z 18011G16KT 28/18 A2988 RMK A01 T02840178  RH  053%=      5-min Rain = 0
KES1 190742Z 18009KT 28/18 A2988 RMK A01 T02820179  RH  054%=      5-min Rain = 0
KES1 190743Z 18009KT 28/18 A2988 RMK A01 T02800180  RH  054%=      5-min Rain = 0
KES1 190744Z 18010KT 28/18 A2988 RMK A01 T02790180  RH  055%=      5-min Rain = 0
KES1 190745Z 19009KT 28/18 A2988 RMK A01 T02790180  RH  055%=      5-min Rain = 0
KES1 190746Z 19012KT 28/18 A2987 RMK A01 T02790179  RH  055%=      5-min Rain = 0
KES1 190747Z 20008KT 28/18 A2987 RMK A01 T02800180  RH  055%=      5-min Rain = 0
KES1 190748Z 19009KT 28/18 A2987 RMK A01 T02800180  RH  054%=      5-min Rain = 0
KES1 190749Z 19011KT 28/18 A2987 RMK A01 T02810179  RH  054%=      5-min Rain = 0
KES1 190750Z 17010G15KT 28/18 A2987 RMK A01 T02820179  RH  054%=      5-min Rain = 0
KES1 190751Z 16012KT 28/18 A2987 RMK A01 T02830179  RH  053%=      5-min Rain = 0
KES1 190752Z 17011KT 28/18 A2987 RMK A01 T02840180  RH  053%=      5-min Rain = 0
KES1 190753Z 17010KT 28/18 A2987 RMK A01 T02830182  RH  054%=      5-min Rain = 0
KES1 190754Z 17012KT 28/18 A2987 RMK A01 T02820182  RH  055%=      5-min Rain = 0
KES1 190755Z 17012G17KT 28/18 A2987 RMK A01 T02810182  RH  055%=      5-min Rain = 0
KES1 190756Z 17014KT 28/18 A2987 RMK A01 T02800182  RH  055%=      5-min Rain = 0
KES1 190757Z 16015G20KT 28/18 A2987 RMK A01 T02800180  RH  055%=      5-min Rain = 0
KES1 190758Z 17016G21KT 28/18 A2988 RMK A01 T02810180  RH  054%=      5-min Rain = 0
KES1 190759Z 17016KT 28/18 A2988 RMK A01 T02820180  RH  054%=      5-min Rain = 0
KES1 190800Z 17017KT 28/18 A2988 RMK A01 T02830180  RH  054%=      5-min Rain = 0
KES1 190801Z 17015G22KT 28/18 A2988 RMK A01 T02830180  RH  053%=      5-min Rain = 0
KES1 190802Z 17014KT 28/18 A2988 RMK A01 T02840181  RH  054%=      5-min Rain = 0
KES1 190803Z 17015KT 28/18 A2988 RMK A01 T02840181  RH  054%=      5-min Rain = 0
KES1 190804Z 17015KT 28/18 A2988 RMK A01 T02840181  RH  054%=      5-min Rain = 0
KES1 190805Z 16014KT 28/18 A2988 RMK A01 T02840181  RH  054%=      5-min Rain = 0
KES1 190806Z 16015G20KT 28/18 A2989 RMK A01 T02840182  RH  054%=      5-min Rain = 0
KES1 190807Z 16015KT 28/18 A2989 RMK A01 T02830181  RH  054%=      5-min Rain = 0
KES1 190808Z 15013KT 28/18 A2989 RMK A01 T02830181  RH  054%=      5-min Rain = 0
KES1 190809Z 15012KT 28/18 A2989 RMK A01 T02830181  RH  054%=      5-min Rain = 0
KES1 190810Z 15012KT 28/18 A2989 RMK A01 T02830181  RH  054%=      5-min Rain = 0
KES1 190811Z 15010KT 28/18 A2989 RMK A01 T02820182  RH  054%=      5-min Rain = 0
KES1 190812Z 15010KT 28/18 A2989 RMK A01 T02810182  RH  055%=      5-min Rain = 0
KES1 190813Z 15010KT 28/18 A2989 RMK A01 T02810181  RH  055%=      5-min Rain = 0
KES1 190814Z 16008KT 28/18 A2989 RMK A01 T02810180  RH  054%=      5-min Rain = 0
KES1 190815Z 16008KT 28/18 A2989 RMK A01 T02810181  RH  054%=      5-min Rain = 0
KES1 190816Z 17007KT 28/18 A2989 RMK A01 T02810180  RH  054%=      5-min Rain = 0
KES1 190817Z 17010KT 28/18 A2989 RMK A01 T02810180  RH  054%=      5-min Rain = 0
KES1 190818Z 17010KT 28/18 A2989 RMK A01 T02830179  RH  053%=      5-min Rain = 0
KES1 190819Z 17008KT 28/18 A2989 RMK A01 T02840181  RH  054%=      5-min Rain = 0
KES1 190820Z 17010KT 28/18 A2988 RMK A01 T02840181  RH  054%=      5-min Rain = 0
KES1 190821Z 18009G14KT 28/18 A2988 RMK A01 T02840181  RH  054%=      5-min Rain = 0
KES1 190822Z 18011KT 28/18 A2988 RMK A01 T02840182  RH  054%=      5-min Rain = 0
KES1 190823Z 18012KT 28/18 A2988 RMK A01 T02830181  RH  054%=      5-min Rain = 0
KES1 190824Z 18012KT 28/18 A2988 RMK A01 T02840180  RH  053%=      5-min Rain = 0
KES1 190825Z 18012KT 29/18 A2988 RMK A01 T02850180  RH  053%=      5-min Rain = 0
KES1 190826Z 18012G18KT 29/18 A2988 RMK A01 T02860181  RH  053%=      5-min Rain = 0
KES1 190827Z 18013KT 29/18 A2988 RMK A01 T02860181  RH  053%=      5-min Rain = 0
KES1 190828Z 19014KT 29/18 A2988 RMK A01 T02860180  RH  053%=      5-min Rain = 0
KES1 190829Z 18014KT 29/18 A2988 RMK A01 T02870180  RH  052%=      5-min Rain = 0
KES1 190830Z 18016G22KT 29/18 A2988 RMK A01 T02870180  RH  052%=      5-min Rain = 0
KES1 190831Z 18015G21KT 29/18 A2988 RMK A01 T02880180  RH  052%=      5-min Rain = 0
KES1 190832Z 19011KT 29/18 A2988 RMK A01 T02880180  RH  052%=      5-min Rain = 0
KES1 190833Z 19011KT 29/18 A2988 RMK A01 T02880182  RH  053%=      5-min Rain = 0
KES1 190834Z 19012G17KT 29/18 A2988 RMK A01 T02860182  RH  053%=      5-min Rain = 0
KES1 190835Z 19012G17KT 29/18 A2988 RMK A01 T02860181  RH  053%=      5-min Rain = 0
KES1 190836Z 19011G16KT 29/18 A2988 RMK A01 T02860181  RH  053%=      5-min Rain = 0
KES1 190837Z 19014KT 29/18 A2987 RMK A01 T02860181  RH  053%=      5-min Rain = 0
KES1 190838Z 19014G19KT 29/18 A2987 RMK A01 T02860180  RH  053%=      5-min Rain = 0
KES1 190839Z 18016G24KT 29/18 A2987 RMK A01 T02860180  RH  053%=      5-min Rain = 0
KES1 190840Z 18014KT 29/18 A2987 RMK A01 T02870180  RH  052%=      5-min Rain = 0
KES1 190841Z 18015G21KT 29/18 A2987 RMK A01 T02880180  RH  052%=      5-min Rain = 0
KES1 190842Z 18019KT 29/18 A2987 RMK A01 T02880179  RH  052%=      5-min Rain = 0
KES1 190843Z 18018G27KT 29/18 A2987 RMK A01 T02890179  RH  052%=      5-min Rain = 0
KES1 190844Z 18016G23KT 29/18 A2987 RMK A01 T02890178  RH  051%=      5-min Rain = 0
KES1 190845Z 18018G24KT 29/18 A2987 RMK A01 T02900178  RH  051%=      5-min Rain = 0
KES1 190846Z 18017G24KT 29/18 A2987 RMK A01 T02910178  RH  050%=      5-min Rain = 0
KES1 190847Z 18017KT 29/18 A2987 RMK A01 T02920178  RH  050%=      5-min Rain = 0
KES1 190848Z 18019KT 29/18 A2987 RMK A01 T02920179  RH  051%=      5-min Rain = 0
KES1 190849Z 18018KT 29/18 A2987 RMK A01 T02920179  RH  051%=      5-min Rain = 0
KES1 190850Z 18018KT 29/18 A2987 RMK A01 T02920178  RH  050%=      5-min Rain = 0
KES1 190851Z 18018G23KT 29/18 A2987 RMK A01 T02920177  RH  050%=      5-min Rain = 0
KES1 190852Z 19018G24KT 29/18 A2987 RMK A01 T02930177  RH  050%=      5-min Rain = 0
KES1 190853Z 18016G22KT 29/18 A2987 RMK A01 T02930177  RH  050%=      5-min Rain = 0
KES1 190854Z 18016G23KT 29/18 A2987 RMK A01 T02940178  RH  050%=      5-min Rain = 0
KES1 190855Z 18016G21KT 29/18 A2987 RMK A01 T02940178  RH  050%=      5-min Rain = 0
KES1 190856Z 18015G21KT 29/18 A2987 RMK A01 T02930178  RH  050%=      5-min Rain = 0
KES1 190857Z 19015KT 29/18 A2987 RMK A01 T02930178  RH  050%=      5-min Rain = 0
KES1 190858Z 19014G21KT 29/18 A2987 RMK A01 T02930178  RH  050%=      5-min Rain = 0
KES1 190859Z 19016G21KT 29/18 A2987 RMK A01 T02920178  RH  050%=      5-min Rain = 0
KES1 190900Z 19014KT 29/18 A2987 RMK A01 T02910178  RH  051%=      5-min Rain = 0
KES1 190901Z 19015KT 29/18 A2987 RMK A01 T02910178  RH  051%=      5-min Rain = 0
KES1 190902Z 19014G21KT 29/18 A2987 RMK A01 T02910177  RH  050%=      5-min Rain = 0
KES1 190903Z 20014KT 29/18 A2987 RMK A01 T02910177  RH  050%=      5-min Rain = 0
KES1 190904Z 20011G17KT 29/18 A2987 RMK A01 T02910178  RH  050%=      5-min Rain = 0
KES1 190905Z 21013KT 29/18 A2987 RMK A01 T02900178  RH  051%=      5-min Rain = 0
KES1 190906Z 20011G16KT 29/18 A2987 RMK A01 T02900178  RH  051%=      5-min Rain = 0
KES1 190907Z 21011KT 29/18 A2987 RMK A01 T02890179  RH  051%=      5-min Rain = 0
KES1 190908Z 21013KT 29/18 A2987 RMK A01 T02890178  RH  051%=      5-min Rain = 0
KES1 190909Z 21011KT 29/18 A2987 RMK A01 T02890177  RH  051%=      5-min Rain = 0
KES1 190910Z 22009KT 29/18 A2987 RMK A01 T02890178  RH  051%=      5-min Rain = 0
KES1 190911Z 21010KT 29/18 A2987 RMK A01 T02880179  RH  052%=      5-min Rain = 0
KES1 190912Z 22010KT 29/18 A2987 RMK A01 T02870179  RH  052%=      5-min Rain = 0
KES1 190913Z 21009KT 29/18 A2987 RMK A01 T02870178  RH  052%=      5-min Rain = 0
KES1 190914Z 21007KT 29/18 A2987 RMK A01 T02870179  RH  052%=      5-min Rain = 0
KES1 190915Z 21012KT 29/18 A2987 RMK A01 T02860178  RH  052%=      5-min Rain = 0
KES1 190916Z 20009KT 29/18 A2987 RMK A01 T02860178  RH  052%=      5-min Rain = 0
KES1 190917Z 20010KT 29/18 A2987 RMK A01 T02870178  RH  052%=      5-min Rain = 0
KES1 190918Z 20008KT 29/18 A2987 RMK A01 T02870179  RH  052%=      5-min Rain = 0
KES1 190919Z 20011KT 29/18 A2987 RMK A01 T02870178  RH  052%=      5-min Rain = 0
KES1 190920Z 20010KT 29/18 A2987 RMK A01 T02870177  RH  051%=      5-min Rain = 0
KES1 190921Z 19013KT 29/18 A2987 RMK A01 T02880178  RH  051%=      5-min Rain = 0
KES1 190922Z 19013KT 29/18 A2987 RMK A01 T02890178  RH  051%=      5-min Rain = 0
KES1 190923Z 19015G21KT 29/18 A2987 RMK A01 T02890178  RH  051%=      5-min Rain = 0
KES1 190924Z 19015G20KT 29/18 A2987 RMK A01 T02900177  RH  051%=      5-min Rain = 0
KES1 190925Z 19015G20KT 29/18 A2987 RMK A01 T02910177  RH  050%=      5-min Rain = 0
KES1 190926Z 19015KT 29/18 A2987 RMK A01 T02910178  RH  050%=      5-min Rain = 0
KES1 190927Z 19015KT 29/18 A2987 RMK A01 T02910177  RH  050%=      5-min Rain = 0
KES1 190928Z 19014KT 29/18 A2987 RMK A01 T02910178  RH  050%=      5-min Rain = 0
KES1 190929Z 19013KT 29/18 A2987 RMK A01 T02910178  RH  050%=      5-min Rain = 0
KES1 190930Z 19013KT 29/18 A2987 RMK A01 T02910178  RH  050%=      5-min Rain = 0
KES1 190931Z 19016G21KT 29/18 A2987 RMK A01 T02910177  RH  050%=      5-min Rain = 0
KES1 190932Z 19016KT 29/18 A2987 RMK A01 T02920176  RH  050%=      5-min Rain = 0
KES1 190933Z 19014KT 29/18 A2987 RMK A01 T02920176  RH  049%=      5-min Rain = 0
KES1 190934Z 20015KT 29/18 A2988 RMK A01 T02930176  RH  049%=      5-min Rain = 0
KES1 190935Z 19015KT 29/18 A2988 RMK A01 T02930177  RH  050%=      5-min Rain = 0
KES1 190936Z 19014KT 29/18 A2988 RMK A01 T02920176  RH  049%=      5-min Rain = 0
KES1 190937Z 19013KT 29/18 A2988 RMK A01 T02920176  RH  050%=      5-min Rain = 0
KES1 190938Z 19011KT 29/18 A2988 RMK A01 T02920177  RH  050%=      5-min Rain = 0
KES1 190939Z 19012KT 29/18 A2988 RMK A01 T02910176  RH  050%=      5-min Rain = 0
KES1 190940Z 20014KT 29/18 A2988 RMK A01 T02910176  RH  050%=      5-min Rain = 0
KES1 190941Z 20012KT 29/18 A2988 RMK A01 T02910176  RH  050%=      5-min Rain = 0
KES1 190942Z 20012KT 29/18 A2988 RMK A01 T02900177  RH  050%=      5-min Rain = 0
KES1 190943Z 20011KT 29/18 A2988 RMK A01 T02890176  RH  050%=      5-min Rain = 0
KES1 190944Z 20012KT 29/18 A2988 RMK A01 T02890176  RH  050%=      5-min Rain = 0
KES1 190945Z 20010KT 29/18 A2988 RMK A01 T02890176  RH  050%=      5-min Rain = 0
KES1 190946Z 19011KT 29/18 A2988 RMK A01 T02890176  RH  051%=      5-min Rain = 0
KES1 190947Z 20011KT 29/18 A2988 RMK A01 T02890176  RH  051%=      5-min Rain = 0
KES1 190948Z 19012KT 29/18 A2988 RMK A01 T02880177  RH  051%=      5-min Rain = 0
KES1 190949Z 19010KT 29/18 A2988 RMK A01 T02870177  RH  051%=      5-min Rain = 0
KES1 190950Z 20010G16KT 29/18 A2988 RMK A01 T02860178  RH  052%=      5-min Rain = 0
KES1 190951Z 20011KT 29/18 A2988 RMK A01 T02850176  RH  052%=      5-min Rain = 0
KES1 190952Z 20011KT 29/18 A2988 RMK A01 T02850177  RH  052%=      5-min Rain = 0
KES1 190953Z 20011KT 28/18 A2988 RMK A01 T02840177  RH  052%=      5-min Rain = 0
KES1 190954Z 20012KT 29/18 A2988 RMK A01 T02850177  RH  052%=      5-min Rain = 0
KES1 190955Z 20012KT 28/18 A2988 RMK A01 T02840177  RH  052%=      5-min Rain = 0
KES1 190956Z 19012KT 28/18 A2988 RMK A01 T02840177  RH  052%=      5-min Rain = 0
KES1 190957Z 19013KT 29/18 A2988 RMK A01 T02850177  RH  052%=      5-min Rain = 0
KES1 190958Z 19012KT 28/18 A2988 RMK A01 T02840176  RH  052%=      5-min Rain = 0
KES1 190959Z 20012KT 29/18 A2988 RMK A01 T02850176  RH  052%=      5-min Rain = 0
KES1 191000Z 20010G16KT 28/18 A2988 RMK A01 T02840176  RH  052%=      5-min Rain = 0
KES1 191001Z 19012G17KT 28/18 A2988 RMK A01 T02840177  RH  052%=      5-min Rain = 0
KES1 191002Z 19012G17KT 28/18 A2988 RMK A01 T02840176  RH  052%=      5-min Rain = 0
KES1 191003Z 20012G17KT 28/18 A2988 RMK A01 T02840176  RH  052%=      5-min Rain = 0
KES1 191004Z 20012KT 28/18 A2988 RMK A01 T02840176  RH  052%=      5-min Rain = 0
KES1 191005Z 20013KT 28/18 A2988 RMK A01 T02840176  RH  052%=      5-min Rain = 0
KES1 191006Z 20013KT 28/18 A2988 RMK A01 T02840176  RH  052%=      5-min Rain = 0
KES1 191007Z 20012KT 28/18 A2988 RMK A01 T02840177  RH  052%=      5-min Rain = 0
KES1 191008Z 20011KT 28/18 A2988 RMK A01 T02830177  RH  052%=      5-min Rain = 0
KES1 191009Z 20011KT 28/18 A2988 RMK A01 T02820177  RH  053%=      5-min Rain = 0
KES1 191010Z 21011KT 28/18 A2988 RMK A01 T02810177  RH  053%=      5-min Rain = 0
KES1 191011Z 20009KT 28/18 A2988 RMK A01 T02800178  RH  054%=      5-min Rain = 0
KES1 191012Z 20011KT 28/18 A2988 RMK A01 T02800178  RH  054%=      5-min Rain = 0
KES1 191013Z 20012KT 28/18 A2988 RMK A01 T02790178  RH  054%=      5-min Rain = 0
KES1 191014Z 20011KT 28/18 A2988 RMK A01 T02780179  RH  055%=      5-min Rain = 0
KES1 191015Z 20010KT 28/18 A2988 RMK A01 T02770179  RH  055%=      5-min Rain = 0
KES1 191016Z 20010KT 28/18 A2988 RMK A01 T02770179  RH  055%=      5-min Rain = 0
KES1 191017Z 20008KT 28/18 A2989 RMK A01 T02760179  RH  055%=      5-min Rain = 0
KES1 191018Z 20008KT 28/18 A2989 RMK A01 T02750179  RH  056%=      5-min Rain = 0
KES1 191019Z 20007KT 28/18 A2989 RMK A01 T02750179  RH  056%=      5-min Rain = 0
KES1 191020Z 21009KT 27/18 A2989 RMK A01 T02740179  RH  056%=      5-min Rain = 0
KES1 191021Z 21008KT 27/18 A2989 RMK A01 T02740179  RH  056%=      5-min Rain = 0
KES1 191022Z 21007KT 27/18 A2989 RMK A01 T02740179  RH  056%=      5-min Rain = 0
KES1 191023Z 21006KT 27/18 A2989 RMK A01 T02730179  RH  057%=      5-min Rain = 0
KES1 191024Z 21007KT 27/18 A2989 RMK A01 T02720179  RH  057%=      5-min Rain = 0
KES1 191025Z 22006KT 27/18 A2989 RMK A01 T02720179  RH  057%=      5-min Rain = 0
KES1 191026Z 23005KT 27/18 A2989 RMK A01 T02720180  RH  057%=      5-min Rain = 0
KES1 191027Z 24005KT 27/18 A2989 RMK A01 T02710180  RH  057%=      5-min Rain = 0
KES1 191028Z 24005KT 27/18 A2989 RMK A01 T02700180  RH  058%=      5-min Rain = 0
KES1 191029Z 24005KT 27/18 A2989 RMK A01 T02690179  RH  058%=      5-min Rain = 0
KES1 191030Z 25004KT 27/18 A2989 RMK A01 T02690179  RH  058%=      5-min Rain = 0
KES1 191031Z 25004KT 27/18 A2989 RMK A01 T02690180  RH  058%=      5-min Rain = 0
KES1 191032Z 24004KT 27/18 A2989 RMK A01 T02680180  RH  058%=      5-min Rain = 0
KES1 191033Z 24004KT 27/18 A2989 RMK A01 T02670179  RH  058%=      5-min Rain = 0
KES1 191034Z 23003KT 27/18 A2989 RMK A01 T02670179  RH  058%=      5-min Rain = 0
KES1 191035Z 23003KT 27/18 A2989 RMK A01 T02670180  RH  059%=      5-min Rain = 0
KES1 191036Z 23003KT 27/18 A2989 RMK A01 T02660179  RH  059%=      5-min Rain = 0
KES1 191037Z 22004KT 27/18 A2989 RMK A01 T02660179  RH  059%=      5-min Rain = 0
KES1 191038Z 22004KT 27/18 A2989 RMK A01 T02650179  RH  059%=      5-min Rain = 0
KES1 191039Z 22004KT 27/18 A2989 RMK A01 T02650179  RH  059%=      5-min Rain = 0
KES1 191040Z 22004KT 26/18 A2989 RMK A01 T02640179  RH  059%=      5-min Rain = 0
KES1 191041Z 22004KT 26/18 A2989 RMK A01 T02640179  RH  059%=      5-min Rain = 0
KES1 191042Z 23005KT 26/18 A2989 RMK A01 T02640179  RH  060%=      5-min Rain = 0
KES1 191043Z 23005KT 26/18 A2989 RMK A01 T02630179  RH  060%=      5-min Rain = 0
KES1 191044Z 23005KT 26/18 A2989 RMK A01 T02630179  RH  060%=      5-min Rain = 0
KES1 191045Z 23005KT 26/18 A2989 RMK A01 T02630178  RH  060%=      5-min Rain = 0
KES1 191046Z 22005KT 26/18 A2989 RMK A01 T02630178  RH  060%=      5-min Rain = 0
KES1 191047Z 22005KT 26/18 A2989 RMK A01 T02630178  RH  060%=      5-min Rain = 0
KES1 191048Z 22005KT 26/18 A2989 RMK A01 T02640177  RH  059%=      5-min Rain = 0
KES1 191049Z 21006KT 27/18 A2989 RMK A01 T02650177  RH  059%=      5-min Rain = 0
KES1 191050Z 21005KT 27/18 A2989 RMK A01 T02660177  RH  058%=      5-min Rain = 0
KES1 191051Z 21005KT 27/18 A2989 RMK A01 T02670177  RH  058%=      5-min Rain = 0
KES1 191052Z 21006KT 27/18 A2989 RMK A01 T02680177  RH  057%=      5-min Rain = 0
KES1 191053Z 21005KT 27/18 A2989 RMK A01 T02690177  RH  057%=      5-min Rain = 0
KES1 191054Z 21005KT 27/18 A2989 RMK A01 T02690177  RH  057%=      5-min Rain = 0
KES1 191055Z 22006KT 27/18 A2989 RMK A01 T02690177  RH  057%=      5-min Rain = 0
KES1 191056Z 22006KT 27/18 A2989 RMK A01 T02690178  RH  057%=      5-min Rain = 0
KES1 191057Z 22005KT 27/18 A2989 RMK A01 T02690177  RH  057%=      5-min Rain = 0
KES1 191058Z 22005KT 27/18 A2989 RMK A01 T02680177  RH  057%=      5-min Rain = 0
KES1 191059Z 22005KT 27/18 A2989 RMK A01 T02690178  RH  057%=      5-min Rain = 0
KES1 191100Z 23005KT 27/18 A2989 RMK A01 T02690178  RH  058%=      5-min Rain = 0
KES1 191101Z 22005KT 27/18 A2989 RMK A01 T02680177  RH  058%=      5-min Rain = 0
KES1 191102Z 22005KT 27/18 A2989 RMK A01 T02680178  RH  058%=      5-min Rain = 0
KES1 191103Z 22004KT 27/18 A2989 RMK A01 T02680178  RH  058%=      5-min Rain = 0
KES1 191104Z 21004KT 27/18 A2989 RMK A01 T02670178  RH  058%=      5-min Rain = 0
KES1 191105Z 22006KT 27/18 A2989 RMK A01 T02660177  RH  058%=      5-min Rain = 0
KES1 191106Z 22005KT 27/18 A2989 RMK A01 T02660177  RH  058%=      5-min Rain = 0
KES1 191107Z 22005KT 27/18 A2989 RMK A01 T02660178  RH  058%=      5-min Rain = 0
KES1 191108Z 22005KT 27/18 A2989 RMK A01 T02660177  RH  058%=      5-min Rain = 0
KES1 191109Z 22005KT 27/18 A2989 RMK A01 T02660178  RH  058%=      5-min Rain = 0
KES1 191110Z 22005KT 27/18 A2989 RMK A01 T02660178  RH  058%=      5-min Rain = 0
KES1 191111Z 23005KT 27/18 A2989 RMK A01 T02650177  RH  058%=      5-min Rain = 0
KES1 191112Z 22005KT 27/18 A2989 RMK A01 T02650178  RH  059%=      5-min Rain = 0
KES1 191113Z 23004KT 27/18 A2989 RMK A01 T02650178  RH  059%=      5-min Rain = 0
KES1 191114Z 22005KT 27/18 A2989 RMK A01 T02650178  RH  059%=      5-min Rain = 0
KES1 191115Z 22004KT 27/18 A2989 RMK A01 T02650177  RH  059%=      5-min Rain = 0
KES1 191116Z 22004KT 27/18 A2989 RMK A01 T02650178  RH  059%=      5-min Rain = 0
KES1 191117Z 22004KT 26/18 A2989 RMK A01 T02640178  RH  059%=      5-min Rain = 0
KES1 191118Z 22005KT 26/18 A2989 RMK A01 T02640177  RH  059%=      5-min Rain = 0
KES1 191119Z 23004KT 26/18 A2989 RMK A01 T02640177  RH  059%=      5-min Rain = 0
KES1 191120Z 23005KT 26/18 A2989 RMK A01 T02640177  RH  059%=      5-min Rain = 0
KES1 191121Z 23003KT 26/18 A2989 RMK A01 T02640176  RH  059%=      5-min Rain = 0
KES1 191122Z 22003KT 26/18 A2989 RMK A01 T02640177  RH  059%=      5-min Rain = 0
KES1 191123Z 23003KT 26/18 A299 RMK A01 T02640178  RH  059%=      5-min Rain = 0
KES1 191124Z 23003KT 26/18 A299 RMK A01 T02640177  RH  059%=      5-min Rain = 0
KES1 191125Z 23002KT 26/18 A299 RMK A01 T02640177  RH  059%=      5-min Rain = 0
KES1 191126Z 23002KT 26/18 A299 RMK A01 T02630177  RH  059%=      5-min Rain = 0
KES1 191127Z 24001KT 26/18 A299 RMK A01 T02630178  RH  060%=      5-min Rain = 0
KES1 191128Z 26001KT 26/18 A299 RMK A01 T02620177  RH  059%=      5-min Rain = 0
KES1 191129Z 26001KT 26/18 A299 RMK A01 T02620177  RH  059%=      5-min Rain = 0
KES1 191130Z 27002KT 26/18 A299 RMK A01 T02620177  RH  059%=      5-min Rain = 0
KES1 191131Z 26002KT 26/18 A299 RMK A01 T02620177  RH  059%=      5-min Rain = 0
KES1 191132Z 25001KT 26/18 A299 RMK A01 T02620177  RH  059%=      5-min Rain = 0
KES1 191133Z 24001KT 26/18 A299 RMK A01 T02620176  RH  059%=      5-min Rain = 0
KES1 191134Z 23000KT 26/18 A299 RMK A01 T02620176  RH  059%=      5-min Rain = 0
KES1 191135Z 22001KT 26/18 A299 RMK A01 T02620176  RH  059%=      5-min Rain = 0
KES1 191136Z 24000KT 26/18 A299 RMK A01 T02620176  RH  059%=      5-min Rain = 0
KES1 191137Z 30000KT 26/18 A299 RMK A01 T02620177  RH  059%=      5-min Rain = 0
KES1 191138Z 32000KT 26/18 A299 RMK A01 T02620176  RH  059%=      5-min Rain = 0
KES1 191139Z 34000KT 26/18 A299 RMK A01 T02620176  RH  059%=      5-min Rain = 0
KES1 191140Z 05002KT 26/18 A299 RMK A01 T02610177  RH  060%=      5-min Rain = 0
KES1 191141Z 06003KT 26/18 A2991 RMK A01 T02590179  RH  061%=      5-min Rain = 0
KES1 191142Z 07004KT 26/18 A2991 RMK A01 T02560179  RH  063%=      5-min Rain = 0
KES1 191143Z 07005KT 25/18 A2991 RMK A01 T02530180  RH  064%=      5-min Rain = 0
KES1 191144Z 07005KT 25/18 A2991 RMK A01 T02500181  RH  065%=      5-min Rain = 0
KES1 191145Z 07008KT 25/18 A2991 RMK A01 T02480181  RH  066%=      5-min Rain = 0
KES1 191146Z 08008KT 25/18 A2992 RMK A01 T02470182  RH  067%=      5-min Rain = 0
KES1 191147Z 08009KT 25/18 A2992 RMK A01 T02460183  RH  068%=      5-min Rain = 0
KES1 191148Z 08007KT 24/18 A2992 RMK A01 T02440184  RH  069%=      5-min Rain = 0
KES1 191149Z 08007KT 24/19 A2992 RMK A01 T02440185  RH  070%=      5-min Rain = 0
KES1 191150Z 08008KT 24/19 A2992 RMK A01 T02420185  RH  070%=      5-min Rain = 0
KES1 191151Z 09008KT 24/19 A2992 RMK A01 T02420185  RH  070%=      5-min Rain = 0
KES1 191152Z 09008KT 24/19 A2992 RMK A01 T02430186  RH  071%=      5-min Rain = 0
KES1 191153Z 09007KT 24/19 A2992 RMK A01 T02430186  RH  071%=      5-min Rain = 0
KES1 191154Z 09006KT 24/19 A2992 RMK A01 T02430186  RH  070%=      5-min Rain = 0
KES1 191155Z 09004KT 24/19 A2992 RMK A01 T02430185  RH  070%=      5-min Rain = 0
KES1 191156Z 10005KT 24/18 A2992 RMK A01 T02440184  RH  070%=      5-min Rain = 0
KES1 191157Z 10005KT 24/18 A2992 RMK A01 T02440184  RH  069%=      5-min Rain = 0
KES1 191158Z 09006KT 24/19 A2992 RMK A01 T02440185  RH  069%=      5-min Rain = 0
KES1 191159Z 09008KT 24/19 A2992 RMK A01 T02430185  RH  070%=      5-min Rain = 0
KES1 191200Z 09009KT 24/19 A2992 RMK A01 T02430185  RH  070%=      5-min Rain = 0
KES1 191201Z 08009KT 24/18 A2992 RMK A01 T02440184  RH  069%=      5-min Rain = 0
KES1 191202Z 08008KT 25/18 A2993 RMK A01 T02460184  RH  069%=      5-min Rain = 0
KES1 191203Z 09011KT 25/18 A2993 RMK A01 T02470184  RH  068%=      5-min Rain = 0
KES1 191204Z 08011KT 25/18 A2993 RMK A01 T02490182  RH  066%=      5-min Rain = 0
KES1 191205Z 09010KT 25/18 A2993 RMK A01 T02530183  RH  065%=      5-min Rain = 0
KES1 191206Z 09009KT 25/18 A2993 RMK A01 T02540183  RH  065%=      5-min Rain = 0
KES1 191207Z 10008KT 25/18 A2993 RMK A01 T02540184  RH  065%=      5-min Rain = 0
KES1 191208Z 10008KT 25/18 A2993 RMK A01 T02530184  RH  066%=      5-min Rain = 0
KES1 191209Z 10007KT 25/18 A2993 RMK A01 T02520184  RH  066%=      5-min Rain = 0
KES1 191210Z 10007KT 25/18 A2993 RMK A01 T02510184  RH  066%=      5-min Rain = 0
KES1 191211Z 11004KT 25/18 A2993 RMK A01 T02510183  RH  066%=      5-min Rain = 0
KES1 191212Z 11005KT 25/18 A2993 RMK A01 T02510183  RH  066%=      5-min Rain = 0
KES1 191213Z 10005KT 25/18 A2993 RMK A01 T02510183  RH  066%=      5-min Rain = 0
KES1 191214Z 09004KT 25/18 A2993 RMK A01 T02510184  RH  066%=      5-min Rain = 0
KES1 191215Z 10005KT 25/18 A2993 RMK A01 T02510184  RH  066%=      5-min Rain = 0
KES1 191216Z 10005KT 25/18 A2993 RMK A01 T02510184  RH  066%=      5-min Rain = 0
KES1 191217Z 10007KT 25/18 A2993 RMK A01 T02500184  RH  067%=      5-min Rain = 0
KES1 191218Z 10009KT 25/19 A2993 RMK A01 T02490185  RH  067%=      5-min Rain = 0
KES1 191219Z 10009KT 25/18 A2994 RMK A01 T02480184  RH  068%=      5-min Rain = 0
KES1 191220Z 09009KT 25/19 A2994 RMK A01 T02490185  RH  067%=      5-min Rain = 0
KES1 191221Z 09009KT 25/19 A2994 RMK A01 T02500185  RH  067%=      5-min Rain = 0
KES1 191222Z 09010KT 25/19 A2994 RMK A01 T02500186  RH  068%=      5-min Rain = 0
KES1 191223Z 10010KT 25/19 A2994 RMK A01 T02490186  RH  068%=      5-min Rain = 0
KES1 191224Z 10008KT 25/19 A2994 RMK A01 T02490185  RH  067%=      5-min Rain = 0
KES1 191225Z 10008KT 25/19 A2994 RMK A01 T02500185  RH  067%=      5-min Rain = 0
KES1 191226Z 10007KT 25/19 A2994 RMK A01 T02510185  RH  066%=      5-min Rain = 0
KES1 191227Z 11006KT 25/19 A2994 RMK A01 T02520185  RH  066%=      5-min Rain = 0
KES1 191228Z 11007KT 25/19 A2994 RMK A01 T02530185  RH  066%=      5-min Rain = 0
KES1 191229Z 11006KT 25/19 A2994 RMK A01 T02540185  RH  066%=      5-min Rain = 0
KES1 191230Z 11006KT 26/18 A2994 RMK A01 T02550184  RH  065%=      5-min Rain = 0
KES1 191231Z 11006KT 26/18 A2994 RMK A01 T02560184  RH  065%=      5-min Rain = 0
KES1 191232Z 11006KT 26/19 A2994 RMK A01 T02570185  RH  065%=      5-min Rain = 0
KES1 191233Z 09007KT 26/19 A2994 RMK A01 T02570185  RH  064%=      5-min Rain = 0
KES1 191234Z 10008KT 26/18 A2994 RMK A01 T02580183  RH  063%=      5-min Rain = 0
KES1 191235Z 09008KT 26/18 A2994 RMK A01 T02600184  RH  063%=      5-min Rain = 0
KES1 191236Z 10008KT 26/18 A2994 RMK A01 T02610184  RH  062%=      5-min Rain = 0
KES1 191237Z 09008KT 26/18 A2994 RMK A01 T02610184  RH  062%=      5-min Rain = 0
KES1 191238Z 10008KT 26/18 A2994 RMK A01 T02610184  RH  062%=      5-min Rain = 0
KES1 191239Z 10007KT 26/19 A2994 RMK A01 T02620185  RH  063%=      5-min Rain = 0
KES1 191240Z 09007KT 26/18 A2994 RMK A01 T02620184  RH  062%=      5-min Rain = 0
KES1 191241Z 10006KT 26/19 A2994 RMK A01 T02620185  RH  063%=      5-min Rain = 0
KES1 191242Z 10006KT 26/19 A2994 RMK A01 T02610186  RH  063%=      5-min Rain = 0
KES1 191243Z 11005KT 26/19 A2994 RMK A01 T02610186  RH  063%=      5-min Rain = 0
KES1 191244Z 12005KT 26/19 A2994 RMK A01 T02610186  RH  063%=      5-min Rain = 0
KES1 191245Z 12005KT 26/19 A2994 RMK A01 T02610185  RH  063%=      5-min Rain = 0
KES1 191246Z 12005KT 26/19 A2994 RMK A01 T02610186  RH  063%=      5-min Rain = 0
KES1 191247Z 12006KT 26/19 A2994 RMK A01 T02620187  RH  063%=      5-min Rain = 0
KES1 191248Z 12008KT 26/19 A2994 RMK A01 T02620186  RH  063%=      5-min Rain = 0
KES1 191249Z 11009KT 26/19 A2994 RMK A01 T02630186  RH  063%=      5-min Rain = 0
KES1 191250Z 11008KT 26/19 A2994 RMK A01 T02640185  RH  062%=      5-min Rain = 0
KES1 191251Z 11008KT 27/18 A2994 RMK A01 T02650184  RH  061%=      5-min Rain = 0
KES1 191252Z 11010KT 27/18 A2994 RMK A01 T02660184  RH  061%=      5-min Rain = 0
KES1 191253Z 10007KT 27/19 A2994 RMK A01 T02660185  RH  061%=      5-min Rain = 0
KES1 191254Z 11007KT 27/19 A2994 RMK A01 T02660185  RH  061%=      5-min Rain = 0
KES1 191255Z 11008KT 27/19 A2994 RMK A01 T02660186  RH  061%=      5-min Rain = 0
KES1 191256Z 11008KT 27/19 A2994 RMK A01 T02660185  RH  061%=      5-min Rain = 0
KES1 191257Z 11008KT 27/19 A2994 RMK A01 T02660185  RH  061%=      5-min Rain = 0
KES1 191258Z 11008KT 27/19 A2994 RMK A01 T02670185  RH  061%=      5-min Rain = 0
KES1 191259Z 11008KT 27/19 A2994 RMK A01 T02670185  RH  061%=      5-min Rain = 0
KES1 191300Z 11008KT 27/19 A2994 RMK A01 T02670186  RH  061%=      5-min Rain = 0
KES1 191301Z 11008KT 27/19 A2995 RMK A01 T02670187  RH  062%=      5-min Rain = 0
KES1 191302Z 11008KT 27/19 A2995 RMK A01 T02670187  RH  061%=      5-min Rain = 0
KES1 191303Z 11008KT 27/19 A2995 RMK A01 T02670187  RH  062%=      5-min Rain = 0
KES1 191304Z 11008KT 27/19 A2995 RMK A01 T02670187  RH  062%=      5-min Rain = 0
KES1 191305Z 11008KT 27/19 A2995 RMK A01 T02670188  RH  062%=      5-min Rain = 0
KES1 191306Z 11009KT 27/19 A2995 RMK A01 T02660188  RH  062%=      5-min Rain = 0
KES1 191307Z 11009KT 27/19 A2995 RMK A01 T02660187  RH  062%=      5-min Rain = 0
KES1 191308Z 11010KT 27/19 A2995 RMK A01 T02660188  RH  062%=      5-min Rain = 0
KES1 191309Z 11009KT 27/19 A2995 RMK A01 T02660188  RH  062%=      5-min Rain = 0
KES1 191310Z 12009KT 27/19 A2995 RMK A01 T02660188  RH  062%=      5-min Rain = 0
KES1 191311Z 11009KT 27/19 A2995 RMK A01 T02660189  RH  062%=      5-min Rain = 0
KES1 191312Z 12009KT 27/19 A2995 RMK A01 T02660189  RH  063%=      5-min Rain = 0
KES1 191313Z 12008KT 27/19 A2995 RMK A01 T02660189  RH  063%=      5-min Rain = 0
KES1 191314Z 12009KT 27/19 A2995 RMK A01 T02670189  RH  062%=      5-min Rain = 0
KES1 191315Z 12009KT 27/19 A2995 RMK A01 T02670189  RH  062%=      5-min Rain = 0
KES1 191316Z 13008KT 27/19 A2995 RMK A01 T02670190  RH  062%=      5-min Rain = 0
KES1 191317Z 12008KT 27/19 A2995 RMK A01 T02680190  RH  062%=      5-min Rain = 0
KES1 191318Z 12007KT 27/19 A2995 RMK A01 T02690192  RH  063%=      5-min Rain = 0
KES1 191319Z 13008KT 27/19 A2995 RMK A01 T02690191  RH  062%=      5-min Rain = 0
KES1 191320Z 13008KT 27/19 A2995 RMK A01 T02700190  RH  062%=      5-min Rain = 0
KES1 191321Z 13008KT 27/19 A2995 RMK A01 T02700190  RH  062%=      5-min Rain = 0
KES1 191322Z 13009KT 27/19 A2995 RMK A01 T02710192  RH  062%=      5-min Rain = 0
KES1 191323Z 13009KT 27/19 A2995 RMK A01 T02720192  RH  061%=      5-min Rain = 0
KES1 191324Z 13010KT 27/19 A2995 RMK A01 T02730190  RH  061%=      5-min Rain = 0
KES1 191325Z 13009KT 27/19 A2995 RMK A01 T02730190  RH  061%=      5-min Rain = 0
KES1 191326Z 13008KT 27/19 A2995 RMK A01 T02730191  RH  061%=      5-min Rain = 0
KES1 191327Z 13007KT 27/19 A2995 RMK A01 T02730193  RH  062%=      5-min Rain = 0
KES1 191328Z 13008KT 27/19 A2995 RMK A01 T02740193  RH  061%=      5-min Rain = 0
KES1 191329Z 13007KT 28/19 A2996 RMK A01 T02750193  RH  061%=      5-min Rain = 0
KES1 191330Z 12009KT 28/19 A2996 RMK A01 T02750193  RH  061%=      5-min Rain = 0
KES1 191331Z 12008KT 28/19 A2996 RMK A01 T02760194  RH  061%=      5-min Rain = 0
KES1 191332Z 12008KT 28/19 A2996 RMK A01 T02760193  RH  060%=      5-min Rain = 0
KES1 191333Z 13007KT 28/19 A2996 RMK A01 T02760194  RH  061%=      5-min Rain = 0
KES1 191334Z 13009KT 28/19 A2996 RMK A01 T02770194  RH  061%=      5-min Rain = 0
KES1 191335Z 13011KT 28/19 A2996 RMK A01 T02780192  RH  059%=      5-min Rain = 0
KES1 191336Z 12010KT 28/19 A2996 RMK A01 T02780190  RH  059%=      5-min Rain = 0
KES1 191337Z 13008KT 28/19 A2996 RMK A01 T02780192  RH  059%=      5-min Rain = 0
KES1 191338Z 14010KT 28/19 A2996 RMK A01 T02790190  RH  058%=      5-min Rain = 0
KES1 191339Z 14008KT 28/19 A2996 RMK A01 T02790192  RH  059%=      5-min Rain = 0
KES1 191340Z 13009KT 28/19 A2996 RMK A01 T02810190  RH  058%=      5-min Rain = 0
KES1 191341Z 14010KT 28/19 A2996 RMK A01 T02810189  RH  057%=      5-min Rain = 0
KES1 191342Z 14009KT 28/19 A2996 RMK A01 T02810190  RH  058%=      5-min Rain = 0
KES1 191343Z 14007KT 28/19 A2996 RMK A01 T02810191  RH  058%=      5-min Rain = 0
KES1 191344Z 13009KT 28/19 A2996 RMK A01 T02820192  RH  058%=      5-min Rain = 0
KES1 191345Z 13007KT 28/19 A2996 RMK A01 T02830192  RH  058%=      5-min Rain = 0
KES1 191346Z 13009KT 28/19 A2996 RMK A01 T02830192  RH  058%=      5-min Rain = 0
KES1 191347Z 13009KT 28/19 A2996 RMK A01 T02830191  RH  057%=      5-min Rain = 0
KES1 191348Z 13009KT 28/19 A2996 RMK A01 T02830191  RH  057%=      5-min Rain = 0
KES1 191349Z 13007KT 28/19 A2997 RMK A01 T02840192  RH  058%=      5-min Rain = 0
KES1 191350Z 13009KT 29/19 A2997 RMK A01 T02850192  RH  057%=      5-min Rain = 0
KES1 191351Z 13009KT 29/19 A2997 RMK A01 T02850192  RH  057%=      5-min Rain = 0
KES1 191352Z 13009KT 29/19 A2997 RMK A01 T02850192  RH  057%=      5-min Rain = 0
KES1 191353Z 13007KT 29/19 A2997 RMK A01 T02860193  RH  057%=      5-min Rain = 0
KES1 191354Z 14009KT 29/19 A2997 RMK A01 T02860194  RH  057%=      5-min Rain = 0
KES1 191355Z 13010KT 29/19 A2997 RMK A01 T02870193  RH  057%=      5-min Rain = 0
KES1 191356Z 14010KT 29/19 A2997 RMK A01 T02870193  RH  057%=      5-min Rain = 0
KES1 191357Z 13008KT 29/19 A2997 RMK A01 T02880194  RH  057%=      5-min Rain = 0
KES1 191358Z 13007KT 29/19 A2997 RMK A01 T02880194  RH  057%=      5-min Rain = 0
KES1 191359Z 14007KT 29/20 A2997 RMK A01 T02890196  RH  057%=      5-min Rain = 0
KES1 191400Z 14007KT 29/20 A2997 RMK A01 T02900196  RH  057%=      5-min Rain = 0
KES1 191401Z 14008KT 29/20 A2997 RMK A01 T02910197  RH  057%=      5-min Rain = 0
KES1 191402Z 14007KT 29/20 A2997 RMK A01 T02920195  RH  056%=      5-min Rain = 0
KES1 191403Z 13006KT 29/20 A2997 RMK A01 T02910196  RH  056%=      5-min Rain = 0
KES1 191404Z 13007KT 29/20 A2997 RMK A01 T02920197  RH  057%=      5-min Rain = 0
KES1 191405Z 14008KT 29/20 A2997 RMK A01 T02930195  RH  056%=      5-min Rain = 0
KES1 191406Z 13009KT 29/20 A2997 RMK A01 T02940195  RH  055%=      5-min Rain = 0
KES1 191407Z 13011KT 29/19 A2997 RMK A01 T02940192  RH  054%=      5-min Rain = 0
KES1 191408Z 13009KT 29/19 A2997 RMK A01 T02920191  RH  054%=      5-min Rain = 0
KES1 191409Z 14007KT 29/19 A2997 RMK A01 T02920194  RH  056%=      5-min Rain = 0
KES1 191410Z 14009KT 29/20 A2997 RMK A01 T02930195  RH  056%=      5-min Rain = 0
KES1 191411Z 13011KT 29/19 A2997 RMK A01 T02940191  RH  054%=      5-min Rain = 0
KES1 191412Z 14009KT 29/19 A2997 RMK A01 T02940191  RH  054%=      5-min Rain = 0
KES1 191413Z 14010KT 29/19 A2997 RMK A01 T02940192  RH  054%=      5-min Rain = 0
KES1 191414Z 14009KT 29/19 A2997 RMK A01 T02940191  RH  054%=      5-min Rain = 0
KES1 191415Z 14011KT 29/19 A2997 RMK A01 T02940192  RH  054%=      5-min Rain = 0
KES1 191416Z 14010KT 29/19 A2997 RMK A01 T02940192  RH  054%=      5-min Rain = 0
KES1 191417Z 14008KT 29/20 A2997 RMK A01 T02940195  RH  055%=      5-min Rain = 0
KES1 191418Z 14010KT 30/19 A2997 RMK A01 T02950194  RH  055%=      5-min Rain = 0
KES1 191419Z 14011KT 30/19 A2997 RMK A01 T02950192  RH  054%=      5-min Rain = 0
KES1 191420Z 14008KT 30/19 A2998 RMK A01 T02950194  RH  054%=      5-min Rain = 0
KES1 191421Z 14008KT 30/20 A2998 RMK A01 T02950195  RH  055%=      5-min Rain = 0
KES1 191422Z 15009KT 30/20 A2998 RMK A01 T02960195  RH  055%=      5-min Rain = 0
KES1 191423Z 14009KT 30/20 A2998 RMK A01 T02970195  RH  054%=      5-min Rain = 0
KES1 191424Z 14010KT 30/20 A2998 RMK A01 T02980195  RH  054%=      5-min Rain = 0
KES1 191425Z 14011KT 30/19 A2998 RMK A01 T02980193  RH  053%=      5-min Rain = 0
KES1 191426Z 13008KT 30/19 A2998 RMK A01 T02980194  RH  054%=      5-min Rain = 0
KES1 191427Z 13008KT 30/20 A2998 RMK A01 T02980197  RH  055%=      5-min Rain = 0
KES1 191428Z 14008KT 30/20 A2998 RMK A01 T02990197  RH  054%=      5-min Rain = 0
KES1 191429Z 13008KT 30/20 A2998 RMK A01 T03010197  RH  054%=      5-min Rain = 0
KES1 191430Z 13009KT 30/20 A2998 RMK A01 T03010196  RH  053%=      5-min Rain = 0
KES1 191431Z 14008KT 30/20 A2998 RMK A01 T03010195  RH  053%=      5-min Rain = 0
KES1 191432Z 14008KT 30/20 A2998 RMK A01 T03000197  RH  054%=      5-min Rain = 0
KES1 191433Z 14007KT 30/20 A2998 RMK A01 T03000197  RH  054%=      5-min Rain = 0
KES1 191434Z 14007KT 30/20 A2998 RMK A01 T03000197  RH  054%=      5-min Rain = 0
KES1 191435Z 14007KT 30/20 A2998 RMK A01 T03010196  RH  053%=      5-min Rain = 0
KES1 191436Z 14006KT 30/20 A2998 RMK A01 T03020198  RH  054%=      5-min Rain = 0
KES1 191437Z 15007KT 30/20 A2998 RMK A01 T03020198  RH  054%=      5-min Rain = 0
KES1 191438Z 15006KT 30/20 A2998 RMK A01 T03030201  RH  054%=      5-min Rain = 0
KES1 191439Z 15007KT 30/20 A2998 RMK A01 T03040198  RH  053%=      5-min Rain = 0
KES1 191440Z 14008KT 31/20 A2998 RMK A01 T03050198  RH  053%=      5-min Rain = 0
KES1 191441Z 14009KT 31/20 A2998 RMK A01 T03050198  RH  053%=      5-min Rain = 0
KES1 191442Z 14009KT 31/20 A2998 RMK A01 T03050195  RH  052%=      5-min Rain = 0
KES1 191443Z 14009KT 31/20 A2998 RMK A01 T03050195  RH  052%=      5-min Rain = 0
KES1 191444Z 14008KT 31/20 A2998 RMK A01 T03050195  RH  052%=      5-min Rain = 0
KES1 191445Z 14008KT 31/20 A2998 RMK A01 T03050196  RH  052%=      5-min Rain = 0
KES1 191446Z 15008KT 31/20 A2998 RMK A01 T03060197  RH  052%=      5-min Rain = 0
KES1 191447Z 15007KT 31/20 A2998 RMK A01 T03060198  RH  052%=      5-min Rain = 0
KES1 191448Z 16007KT 31/20 A2998 RMK A01 T03070197  RH  052%=      5-min Rain = 0
KES1 191449Z 15007KT 31/19 A2998 RMK A01 T03080194  RH  051%=      5-min Rain = 0
KES1 191450Z 14009KT 31/20 A2998 RMK A01 T03090197  RH  051%=      5-min Rain = 0
KES1 191451Z 15009KT 31/19 A2998 RMK A01 T03100193  RH  050%=      5-min Rain = 0
KES1 191452Z 15008KT 31/19 A2998 RMK A01 T03100194  RH  050%=      5-min Rain = 0
KES1 191453Z 15010KT 31/19 A2998 RMK A01 T03110192  RH  049%=      5-min Rain = 0
KES1 191454Z 14009KT 31/19 A2998 RMK A01 T03110192  RH  049%=      5-min Rain = 0
KES1 191455Z 15008KT 31/19 A2998 RMK A01 T03100193  RH  050%=      5-min Rain = 0
KES1 191456Z 15008KT 31/20 A2998 RMK A01 T03100195  RH  050%=      5-min Rain = 0
KES1 191457Z 14009KT 31/19 A2998 RMK A01 T03120192  RH  049%=      5-min Rain = 0
KES1 191458Z 15008KT 31/19 A2998 RMK A01 T03120193  RH  049%=      5-min Rain = 0
KES1 191459Z 15009KT 31/19 A2998 RMK A01 T03120193  RH  049%=      5-min Rain = 0
KES1 191500Z 15008KT 31/19 A2998 RMK A01 T03120194  RH  050%=      5-min Rain = 0
KES1 191501Z 15009KT 31/19 A2998 RMK A01 T03120193  RH  049%=      5-min Rain = 0
KES1 191502Z 15011KT 31/19 A2998 RMK A01 T03120192  RH  049%=      5-min Rain = 0
KES1 191503Z 15010KT 31/19 A2998 RMK A01 T03120194  RH  049%=      5-min Rain = 0
KES1 191504Z 14009KT 31/19 A2998 RMK A01 T03120193  RH  049%=      5-min Rain = 0
KES1 191505Z 15009KT 31/19 A2998 RMK A01 T03120194  RH  050%=      5-min Rain = 0
KES1 191506Z 15009KT 31/19 A2998 RMK A01 T03120194  RH  049%=      5-min Rain = 0
KES1 191507Z 15009KT 31/19 A2998 RMK A01 T03120192  RH  049%=      5-min Rain = 0
KES1 191508Z 15008KT 31/19 A2998 RMK A01 T03120193  RH  049%=      5-min Rain = 0
KES1 191509Z 15008KT 31/19 A2998 RMK A01 T03120194  RH  049%=      5-min Rain = 0
KES1 191510Z 15007KT 31/20 A2998 RMK A01 T03140195  RH  049%=      5-min Rain = 0
KES1 191511Z 14006KT 32/20 A2998 RMK A01 T03150198  RH  050%=      5-min Rain = 0
KES1 191512Z 15008KT 32/20 A2998 RMK A01 T03160198  RH  049%=      5-min Rain = 0
KES1 191513Z 15009KT 32/20 A2998 RMK A01 T03170195  RH  048%=      5-min Rain = 0
KES1 191514Z 15010KT 32/19 A2998 RMK A01 T03170194  RH  048%=      5-min Rain = 0
KES1 191515Z 15008KT 32/20 A2998 RMK A01 T03160195  RH  049%=      5-min Rain = 0
KES1 191516Z 16007KT 32/20 A2998 RMK A01 T03160196  RH  049%=      5-min Rain = 0
KES1 191517Z 17008KT 32/20 A2998 RMK A01 T03170197  RH  049%=      5-min Rain = 0
KES1 191518Z 17008KT 32/19 A2998 RMK A01 T03180190  RH  047%=      5-min Rain = 0
KES1 191519Z 16007KT 32/19 A2998 RMK A01 T03170190  RH  047%=      5-min Rain = 0
KES1 191520Z 15007KT 32/19 A2998 RMK A01 T03160191  RH  047%=      5-min Rain = 0
KES1 191521Z 15007KT 32/20 A2998 RMK A01 T03180195  RH  048%=      5-min Rain = 0
KES1 191522Z 16007KT 32/19 A2998 RMK A01 T03190194  RH  048%=      5-min Rain = 0
KES1 191523Z 15007KT 32/20 A2998 RMK A01 T03210196  RH  048%=      5-min Rain = 0
KES1 191524Z 18008KT 32/20 A2998 RMK A01 T03220195  RH  047%=      5-min Rain = 0
KES1 191525Z 17008KT 32/19 A2998 RMK A01 T03220190  RH  046%=      5-min Rain = 0
KES1 191526Z 17007KT 32/19 A2998 RMK A01 T03200191  RH  047%=      5-min Rain = 0
KES1 191527Z 16008KT 32/19 A2998 RMK A01 T03190191  RH  047%=      5-min Rain = 0
KES1 191528Z 17007KT 32/19 A2998 RMK A01 T03180194  RH  048%=      5-min Rain = 0
KES1 191529Z 17005KT 32/20 A2998 RMK A01 T03180195  RH  048%=      5-min Rain = 0
KES1 191530Z 17008KT 32/19 A2998 RMK A01 T03200193  RH  047%=      5-min Rain = 0
KES1 191531Z 15008KT 32/20 A2998 RMK A01 T03200195  RH  048%=      5-min Rain = 0
KES1 191532Z 16010KT 32/19 A2998 RMK A01 T03200193  RH  047%=      5-min Rain = 0
KES1 191533Z 17007KT 32/19 A2998 RMK A01 T03200193  RH  047%=      5-min Rain = 0
KES1 191534Z 17009KT 32/20 A2998 RMK A01 T03200195  RH  048%=      5-min Rain = 0
KES1 191535Z 18007KT 32/19 A2998 RMK A01 T03200192  RH  047%=      5-min Rain = 0
KES1 191536Z 18008KT 32/19 A2999 RMK A01 T03190193  RH  047%=      5-min Rain = 0
KES1 191537Z 17006KT 32/19 A2999 RMK A01 T03190194  RH  048%=      5-min Rain = 0
KES1 191538Z 17007KT 32/20 A2999 RMK A01 T03190197  RH  049%=      5-min Rain = 0
KES1 191539Z 15007KT 32/20 A2999 RMK A01 T03220200  RH  049%=      5-min Rain = 0
KES1 191540Z 16007KT 32/20 A2999 RMK A01 T03240197  RH  047%=      5-min Rain = 0
KES1 191541Z 15008KT 33/20 A2999 RMK A01 T03250198  RH  047%=      5-min Rain = 0
KES1 191542Z 18009KT 33/20 A2999 RMK A01 T03250197  RH  047%=      5-min Rain = 0
KES1 191543Z 19009KT 32/20 A2999 RMK A01 T03230197  RH  048%=      5-min Rain = 0
KES1 191544Z 18009KT 32/20 A2999 RMK A01 T03200195  RH  048%=      5-min Rain = 0
KES1 191545Z 15009KT 32/20 A2999 RMK A01 T03190199  RH  049%=      5-min Rain = 0
KES1 191546Z 18007KT 32/20 A2999 RMK A01 T03200196  RH  048%=      5-min Rain = 0
KES1 191547Z 19007KT 32/20 A2999 RMK A01 T03210197  RH  048%=      5-min Rain = 0
KES1 191548Z 15006KT 32/20 A2999 RMK A01 T03210200  RH  049%=      5-min Rain = 0
KES1 191549Z 14007KT 32/20 A2999 RMK A01 T03230198  RH  048%=      5-min Rain = 0
KES1 191550Z 15008KT 32/20 A2999 RMK A01 T03240202  RH  048%=      5-min Rain = 0
KES1 191551Z 16008KT 33/20 A2999 RMK A01 T03250198  RH  047%=      5-min Rain = 0
KES1 191552Z 16008KT 33/20 A2999 RMK A01 T03260199  RH  047%=      5-min Rain = 0
KES1 191553Z 17007KT 33/20 A2999 RMK A01 T03260201  RH  048%=      5-min Rain = 0
KES1 191554Z 17006KT 33/20 A2999 RMK A01 T03270200  RH  047%=      5-min Rain = 0
KES1 191555Z 17006KT 33/20 A2999 RMK A01 T03280201  RH  047%=      5-min Rain = 0
KES1 191556Z 17006KT 33/20 A2999 RMK A01 T03290198  RH  046%=      5-min Rain = 0
KES1 191557Z 16008KT 33/20 A2999 RMK A01 T03300199  RH  046%=      5-min Rain = 0
KES1 191558Z 15008KT 33/20 A2999 RMK A01 T03300199  RH  046%=      5-min Rain = 0
KES1 191559Z 17007KT 33/20 A2999 RMK A01 T03300200  RH  046%=      5-min Rain = 0
KES1 191600Z 18007KT 33/20 A2999 RMK A01 T03310201  RH  047%=      5-min Rain = 0
KES1 191601Z 15009KT 33/20 A2999 RMK A01 T03310199  RH  046%=      5-min Rain = 0
KES1 191602Z 17007KT 33/20 A2999 RMK A01 T03300199  RH  046%=      5-min Rain = 0
KES1 191603Z 17005KT 33/20 A2999 RMK A01 T03300198  RH  046%=      5-min Rain = 0
KES1 191604Z 14004KT 33/20 A2999 RMK A01 T03300199  RH  046%=      5-min Rain = 0
KES1 191605Z 14008KT 33/20 A2999 RMK A01 T03310202  RH  047%=      5-min Rain = 0
KES1 191606Z 15008KT 33/20 A2999 RMK A01 T03330204  RH  047%=      5-min Rain = 0
KES1 191607Z 17006KT 34/20 A2999 RMK A01 T03350199  RH  045%=      5-min Rain = 0
KES1 191608Z 16007KT 33/20 A2999 RMK A01 T03330201  RH  046%=      5-min Rain = 0
KES1 191609Z 16008KT 33/20 A2999 RMK A01 T03330197  RH  045%=      5-min Rain = 0
KES1 191610Z 17006KT 33/20 A2999 RMK A01 T03310199  RH  046%=      5-min Rain = 0
KES1 191611Z 18009KT 33/20 A2999 RMK A01 T03330200  RH  046%=      5-min Rain = 0
KES1 191612Z 16008KT 33/20 A2999 RMK A01 T03330198  RH  045%=      5-min Rain = 0
KES1 191613Z 16009KT 33/20 A2999 RMK A01 T03330200  RH  046%=      5-min Rain = 0
KES1 191614Z 17006KT 33/20 A2999 RMK A01 T03330197  RH  045%=      5-min Rain = 0
KES1 191615Z 17005KT 33/20 A2999 RMK A01 T03320200  RH  046%=      5-min Rain = 0
KES1 191616Z 17009KT 33/20 A2999 RMK A01 T03340201  RH  046%=      5-min Rain = 0
KES1 191617Z 16005KT 33/20 A2999 RMK A01 T03340198  RH  045%=      5-min Rain = 0
KES1 191618Z 17006KT 34/20 A2999 RMK A01 T03350201  RH  046%=      5-min Rain = 0
KES1 191619Z 17010KT 34/20 A2999 RMK A01 T03360202  RH  046%=      5-min Rain = 0
KES1 191620Z 17009KT 34/20 A2999 RMK A01 T03360199  RH  045%=      5-min Rain = 0
KES1 191621Z 16007KT 34/20 A2999 RMK A01 T03350200  RH  045%=      5-min Rain = 0
KES1 191622Z 18007KT 34/20 A2999 RMK A01 T03350203  RH  046%=      5-min Rain = 0
KES1 191623Z 16005KT 34/20 A2999 RMK A01 T03370199  RH  045%=      5-min Rain = 0
KES1 191624Z 15008KT 34/20 A2998 RMK A01 T03370199  RH  045%=      5-min Rain = 0
KES1 191625Z 16010KT 34/20 A2998 RMK A01 T03370201  RH  045%=      5-min Rain = 0
KES1 191626Z 16010KT 34/20 A2998 RMK A01 T03380198  RH  044%=      5-min Rain = 0
KES1 191627Z 17009KT 34/20 A2998 RMK A01 T03360199  RH  045%=      5-min Rain = 0
KES1 191628Z 17008KT 34/20 A2998 RMK A01 T03350200  RH  045%=      5-min Rain = 0
KES1 191629Z 16007KT 34/20 A2998 RMK A01 T03350201  RH  045%=      5-min Rain = 0
KES1 191630Z 18006KT 34/21 A2998 RMK A01 T03370206  RH  046%=      5-min Rain = 0
KES1 191631Z 17008KT 34/20 A2998 RMK A01 T03410204  RH  045%=      5-min Rain = 0
KES1 191632Z 17007KT 34/20 A2998 RMK A01 T03410202  RH  044%=      5-min Rain = 0
KES1 191633Z 15007KT 34/20 A2998 RMK A01 T03400204  RH  045%=      5-min Rain = 0
KES1 191634Z 16008KT 34/20 A2998 RMK A01 T03400203  RH  045%=      5-min Rain = 0
KES1 191635Z 17010KT 34/20 A2998 RMK A01 T03410202  RH  044%=      5-min Rain = 0
KES1 191636Z 17007KT 34/20 A2998 RMK A01 T03400201  RH  044%=      5-min Rain = 0
KES1 191637Z 18008KT 34/20 A2998 RMK A01 T03400204  RH  045%=      5-min Rain = 0
KES1 191638Z 16007KT 34/20 A2998 RMK A01 T03400202  RH  045%=      5-min Rain = 0
KES1 191639Z 16008KT 34/20 A2998 RMK A01 T03390201  RH  044%=      5-min Rain = 0
KES1 191640Z 15009KT 34/20 A2998 RMK A01 T03390202  RH  045%=      5-min Rain = 0
KES1 191641Z 14009KT 34/20 A2998 RMK A01 T03400204  RH  045%=      5-min Rain = 0
KES1 191642Z 15007KT 34/21 A2998 RMK A01 T03420205  RH  045%=      5-min Rain = 0
KES1 191643Z 16007KT 34/21 A2998 RMK A01 T03440209  RH  045%=      5-min Rain = 0
KES1 191644Z 17006KT 35/21 A2998 RMK A01 T03470207  RH  044%=      5-min Rain = 0
KES1 191645Z 16008KT 35/21 A2998 RMK A01 T03470207  RH  044%=      5-min Rain = 0
KES1 191646Z 15006KT 35/20 A2998 RMK A01 T03450203  RH  043%=      5-min Rain = 0
KES1 191647Z 14007G12KT 34/20 A2998 RMK A01 T03430203  RH  044%=      5-min Rain = 0
KES1 191648Z 15010KT 34/21 A2998 RMK A01 T03420205  RH  045%=      5-min Rain = 0
KES1 191649Z 17008KT 34/21 A2998 RMK A01 T03430206  RH  045%=      5-min Rain = 0
KES1 191650Z 17009KT 35/21 A2998 RMK A01 T03450205  RH  044%=      5-min Rain = 0
KES1 191651Z 16007KT 34/20 A2998 RMK A01 T03440204  RH  044%=      5-min Rain = 0
KES1 191652Z 15006KT 34/21 A2998 RMK A01 T03440206  RH  045%=      5-min Rain = 0
KES1 191653Z 15007KT 35/21 A2998 RMK A01 T03460209  RH  045%=      5-min Rain = 0
KES1 191654Z 14006KT 35/20 A2998 RMK A01 T03470204  RH  043%=      5-min Rain = 0
KES1 191655Z 16006KT 35/21 A2998 RMK A01 T03480210  RH  045%=      5-min Rain = 0
KES1 191656Z 16005KT 35/21 A2998 RMK A01 T03490210  RH  044%=      5-min Rain = 0
KES1 191657Z 18007KT 35/21 A2998 RMK A01 T03510206  RH  043%=      5-min Rain = 0
KES1 191658Z 18008KT 35/21 A2998 RMK A01 T03480206  RH  043%=      5-min Rain = 0
KES1 191659Z 17007KT 35/20 A2998 RMK A01 T03470203  RH  043%=      5-min Rain = 0
KES1 191700Z 17007KT 35/20 A2998 RMK A01 T03450204  RH  044%=      5-min Rain = 0
KES1 191701Z 17008KT 35/20 A2998 RMK A01 T03450203  RH  044%=      5-min Rain = 0
KES1 191702Z 16007KT 35/20 A2998 RMK A01 T03450203  RH  044%=      5-min Rain = 0
KES1 191703Z 16007KT 35/20 A2998 RMK A01 T03450203  RH  043%=      5-min Rain = 0
KES1 191704Z 14008KT 35/21 A2998 RMK A01 T03470209  RH  045%=      5-min Rain = 0
KES1 191705Z 15007KT 35/21 A2998 RMK A01 T03500206  RH  043%=      5-min Rain = 0
KES1 191706Z 15007KT 35/21 A2998 RMK A01 T03510207  RH  043%=      5-min Rain = 0
KES1 191707Z 16006KT 35/21 A2998 RMK A01 T03520211  RH  044%=      5-min Rain = 0
KES1 191708Z 15009KT 35/21 A2998 RMK A01 T03540211  RH  043%=      5-min Rain = 0
KES1 191709Z 16010KT 35/21 A2998 RMK A01 T03540208  RH  043%=      5-min Rain = 0
KES1 191710Z 16009KT 35/21 A2998 RMK A01 T03520205  RH  043%=      5-min Rain = 0
KES1 191711Z 17006KT 35/21 A2998 RMK A01 T03500209  RH  044%=      5-min Rain = 0
KES1 191712Z 18007KT 35/20 A2998 RMK A01 T03500204  RH  043%=      5-min Rain = 0
KES1 191713Z 17006KT 35/20 A2998 RMK A01 T03490201  RH  042%=      5-min Rain = 0
KES1 191714Z 16005KT 35/21 A2998 RMK A01 T03480207  RH  044%=      5-min Rain = 0
KES1 191715Z 17006KT 35/21 A2998 RMK A01 T03520211  RH  044%=      5-min Rain = 0
KES1 191716Z 17008KT 36/21 A2998 RMK A01 T03550213  RH  044%=      5-min Rain = 0
KES1 191717Z 14007KT 36/21 A2998 RMK A01 T03570212  RH  043%=      5-min Rain = 0
KES1 191718Z 14007KT 36/21 A2998 RMK A01 T03560211  RH  043%=      5-min Rain = 0
KES1 191719Z 15007KT 36/22 A2998 RMK A01 T03560215  RH  044%=      5-min Rain = 0
KES1 191720Z 15007KT 36/21 A2998 RMK A01 T03570212  RH  043%=      5-min Rain = 0
KES1 191721Z 14007KT 36/21 A2998 RMK A01 T03580210  RH  042%=      5-min Rain = 0
KES1 191722Z 14008KT 36/21 A2998 RMK A01 T03570214  RH  043%=      5-min Rain = 0
KES1 191723Z 16008KT 36/21 A2998 RMK A01 T03590213  RH  043%=      5-min Rain = 0
KES1 191724Z 19005KT 36/21 A2998 RMK A01 T03590212  RH  043%=      5-min Rain = 0
KES1 191725Z 16006KT 36/21 A2998 RMK A01 T03590210  RH  042%=      5-min Rain = 0
KES1 191726Z 14009KT 36/21 A2998 RMK A01 T03600210  RH  042%=      5-min Rain = 0
KES1 191727Z 15008KT 36/21 A2998 RMK A01 T03590214  RH  043%=      5-min Rain = 0
KES1 191728Z 15008KT 36/21 A2998 RMK A01 T03580210  RH  042%=      5-min Rain = 0
KES1 191729Z 14007G13KT 36/21 A2998 RMK A01 T03570211  RH  043%=      5-min Rain = 0
KES1 191730Z 14010KT 36/21 A2998 RMK A01 T03570210  RH  042%=      5-min Rain = 0
KES1 191731Z 15007KT 36/21 A2998 RMK A01 T03560212  RH  043%=      5-min Rain = 0
KES1 191732Z 17008KT 36/21 A2998 RMK A01 T03570209  RH  042%=      5-min Rain = 0
KES1 191733Z 16010KT 36/21 A2998 RMK A01 T03560208  RH  042%=      5-min Rain = 0
KES1 191734Z 14008KT 36/21 A2998 RMK A01 T03560210  RH  043%=      5-min Rain = 0
KES1 191735Z 16009KT 36/21 A2998 RMK A01 T03570209  RH  042%=      5-min Rain = 0
KES1 191736Z 16007KT 36/21 A2998 RMK A01 T03570208  RH  042%=      5-min Rain = 0
KES1 191737Z 15006KT 36/21 A2998 RMK A01 T03570207  RH  042%=      5-min Rain = 0
KES1 191738Z 15005KT 36/21 A2998 RMK A01 T03580209  RH  042%=      5-min Rain = 0
KES1 191739Z 15006KT 36/21 A2998 RMK A01 T03590210  RH  042%=      5-min Rain = 0
KES1 191740Z 16006KT 36/21 A2998 RMK A01 T03600208  RH  041%=      5-min Rain = 0
KES1 191741Z 18004KT 36/21 A2998 RMK A01 T03600207  RH  041%=      5-min Rain = 0
KES1 191742Z 15005KT 36/21 A2998 RMK A01 T03610213  RH  043%=      5-min Rain = 0
KES1 191743Z 16008KT 36/21 A2998 RMK A01 T03630211  RH  041%=      5-min Rain = 0
KES1 191744Z 14009KT 36/21 A2998 RMK A01 T03640210  RH  041%=      5-min Rain = 0
KES1 191745Z 14009KT 36/21 A2998 RMK A01 T03640210  RH  041%=      5-min Rain = 0
KES1 191746Z 13007KT 36/21 A2998 RMK A01 T03630209  RH  041%=      5-min Rain = 0
KES1 191747Z 13005KT 36/21 A2998 RMK A01 T03630213  RH  042%=      5-min Rain = 0
KES1 191748Z 15007KT 37/21 A2998 RMK A01 T03650212  RH  041%=      5-min Rain = 0
KES1 191749Z 15007KT 37/21 A2998 RMK A01 T03660212  RH  041%=      5-min Rain = 0
KES1 191750Z 14007KT 37/21 A2998 RMK A01 T03660212  RH  041%=      5-min Rain = 0
KES1 191751Z 16009KT 37/21 A2998 RMK A01 T03670211  RH  040%=      5-min Rain = 0
KES1 191752Z 16006KT 37/21 A2998 RMK A01 T03660212  RH  041%=      5-min Rain = 0
KES1 191753Z 17006KT 37/22 A2998 RMK A01 T03670215  RH  042%=      5-min Rain = 0
KES1 191754Z 14006KT 37/22 A2998 RMK A01 T03690217  RH  042%=      5-min Rain = 0
KES1 191755Z 12008KT 37/22 A2998 RMK A01 T03710215  RH  040%=      5-min Rain = 0
KES1 191756Z 13009KT 37/21 A2998 RMK A01 T03690214  RH  041%=      5-min Rain = 0
KES1 191757Z 15010KT 37/21 A2998 RMK A01 T03690211  RH  040%=      5-min Rain = 0
KES1 191758Z 15008KT 37/21 A2998 RMK A01 T03680210  RH  040%=      5-min Rain = 0
KES1 191759Z 17010KT 37/21 A2998 RMK A01 T03700211  RH  040%=      5-min Rain = 0
KES1 191800Z 16007KT 37/21 A2998 RMK A01 T03710211  RH  040%=      5-min Rain = 0
KES1 191801Z 17008KT 37/21 A2998 RMK A01 T03700210  RH  040%=      5-min Rain = 0
KES1 191802Z 15007KT 37/21 A2997 RMK A01 T03700208  RH  039%=      5-min Rain = 0
KES1 191803Z 14005KT 37/21 A2997 RMK A01 T03670209  RH  040%=      5-min Rain = 0
KES1 191804Z 13009KT 37/21 A2997 RMK A01 T03680212  RH  041%=      5-min Rain = 0
KES1 191805Z 13009KT 37/21 A2997 RMK A01 T03700214  RH  041%=      5-min Rain = 0
KES1 191806Z 13008KT 37/21 A2997 RMK A01 T03710210  RH  039%=      5-min Rain = 0
KES1 191807Z 14006KT 37/21 A2997 RMK A01 T03710213  RH  040%=      5-min Rain = 0
KES1 191808Z 15005KT 37/22 A2997 RMK A01 T03720215  RH  040%=      5-min Rain = 0
KES1 191809Z 15005KT 37/21 A2997 RMK A01 T03740209  RH  038%=      5-min Rain = 0
KES1 191810Z 15007KT 38/21 A2997 RMK A01 T03750211  RH  039%=      5-min Rain = 0
KES1 191811Z 13010KT 38/21 A2997 RMK A01 T03760208  RH  038%=      5-min Rain = 0
KES1 191812Z 12006KT 37/20 A2997 RMK A01 T03720204  RH  038%=      5-min Rain = 0
KES1 191813Z 15008KT 37/21 A2997 RMK A01 T03690209  RH  039%=      5-min Rain = 0
KES1 191814Z 16008KT 37/20 A2997 RMK A01 T03700204  RH  038%=      5-min Rain = 0
KES1 191815Z 15009G14KT 37/20 A2997 RMK A01 T03710203  RH  038%=      5-min Rain = 0
KES1 191816Z 15009KT 37/21 A2997 RMK A01 T03720205  RH  038%=      5-min Rain = 0
KES1 191817Z 14008KT 37/21 A2997 RMK A01 T03720206  RH  038%=      5-min Rain = 0
KES1 191818Z 15007KT 37/21 A2997 RMK A01 T03720209  RH  039%=      5-min Rain = 0
KES1 191819Z 17008KT 37/21 A2997 RMK A01 T03740206  RH  038%=      5-min Rain = 0
KES1 191820Z 16010KT 37/20 A2997 RMK A01 T03740203  RH  037%=      5-min Rain = 0
KES1 191821Z 15010KT 37/21 A2997 RMK A01 T03740209  RH  039%=      5-min Rain = 0
KES1 191822Z 14010KT 38/21 A2997 RMK A01 T03750208  RH  038%=      5-min Rain = 0
KES1 191823Z 14011KT 38/21 A2997 RMK A01 T03770205  RH  037%=      5-min Rain = 0
KES1 191824Z 15009KT 38/20 A2997 RMK A01 T03760202  RH  036%=      5-min Rain = 0
KES1 191825Z 15008KT 38/20 A2997 RMK A01 T03750202  RH  037%=      5-min Rain = 0
KES1 191826Z 15009KT 38/20 A2997 RMK A01 T03750204  RH  037%=      5-min Rain = 0
KES1 191827Z 14010KT 38/21 A2997 RMK A01 T03760207  RH  038%=      5-min Rain = 0
KES1 191828Z 15009KT 38/20 A2997 RMK A01 T03790197  RH  035%=      5-min Rain = 0
KES1 191829Z 14009KT 38/20 A2997 RMK A01 T03790199  RH  035%=      5-min Rain = 0
KES1 191830Z 14008KT 38/20 A2997 RMK A01 T03790199  RH  035%=      5-min Rain = 0
KES1 191831Z 15011KT 38/20 A2997 RMK A01 T03790200  RH  036%=      5-min Rain = 0
KES1 191832Z 14012KT 38/20 A2996 RMK A01 T03790199  RH  035%=      5-min Rain = 0
KES1 191833Z 14011KT 38/20 A2997 RMK A01 T03790199  RH  035%=      5-min Rain = 0
KES1 191834Z 15008KT 38/20 A2996 RMK A01 T03800201  RH  035%=      5-min Rain = 0
KES1 191835Z 16009G15KT 38/20 A2996 RMK A01 T03820198  RH  034%=      5-min Rain = 0
KES1 191836Z 16011KT 38/19 A2996 RMK A01 T03840193  RH  033%=      5-min Rain = 0
KES1 191837Z 16011KT 38/19 A2996 RMK A01 T03820188  RH  032%=      5-min Rain = 0
KES1 191838Z 16011KT 38/19 A2996 RMK A01 T03810190  RH  033%=      5-min Rain = 0
KES1 191839Z 15012KT 38/20 A2996 RMK A01 T03800196  RH  034%=      5-min Rain = 0
KES1 191840Z 16010KT 38/20 A2996 RMK A01 T03810195  RH  034%=      5-min Rain = 0
KES1 191841Z 16009KT 38/19 A2996 RMK A01 T03820191  RH  033%=      5-min Rain = 0
KES1 191842Z 15008KT 38/19 A2996 RMK A01 T03810193  RH  033%=      5-min Rain = 0
KES1 191843Z 16007KT 38/20 A2996 RMK A01 T03820195  RH  034%=      5-min Rain = 0
KES1 191844Z 15011KT 38/19 A2996 RMK A01 T03840189  RH  032%=      5-min Rain = 0
KES1 191845Z 16010KT 39/19 A2996 RMK A01 T03850185  RH  031%=      5-min Rain = 0
KES1 191846Z 17011KT 38/19 A2996 RMK A01 T03840186  RH  032%=      5-min Rain = 0
KES1 191847Z 16008KT 38/18 A2996 RMK A01 T03830183  RH  031%=      5-min Rain = 0
KES1 191848Z 16009G15KT 38/18 A2996 RMK A01 T03830184  RH  031%=      5-min Rain = 0
KES1 191849Z 14013KT 38/19 A2996 RMK A01 T03840189  RH  032%=      5-min Rain = 0
KES1 191850Z 16013KT 38/19 A2996 RMK A01 T03840186  RH  032%=      5-min Rain = 0
KES1 191851Z 14009KT 38/18 A2996 RMK A01 T03820180  RH  031%=      5-min Rain = 0
KES1 191852Z 14011KT 38/18 A2996 RMK A01 T03810184  RH  032%=      5-min Rain = 0
KES1 191853Z 16010G15KT 38/19 A2996 RMK A01 T03830185  RH  032%=      5-min Rain = 0
KES1 191854Z 16014KT 38/18 A2996 RMK A01 T03840181  RH  031%=      5-min Rain = 0
KES1 191855Z 16012KT 38/18 A2996 RMK A01 T03830181  RH  031%=      5-min Rain = 0
KES1 191856Z 15010KT 38/18 A2996 RMK A01 T03810181  RH  031%=      5-min Rain = 0
KES1 191857Z 16008KT 38/18 A2996 RMK A01 T03810181  RH  031%=      5-min Rain = 0
KES1 191858Z 16009KT 38/18 A2996 RMK A01 T03830184  RH  031%=      5-min Rain = 0
KES1 191859Z 16012KT 39/18 A2996 RMK A01 T03850178  RH  030%=      5-min Rain = 0
KES1 191900Z 17013KT 39/17 A2996 RMK A01 T03850174  RH  029%=      5-min Rain = 0
KES1 191901Z 20009KT 38/18 A2996 RMK A01 T03840179  RH  030%=      5-min Rain = 0
KES1 191902Z 18009KT 38/17 A2996 RMK A01 T03840174  RH  029%=      5-min Rain = 0
KES1 191903Z 16008KT 38/18 A2996 RMK A01 T03830181  RH  031%=      5-min Rain = 0
KES1 191904Z 15009KT 39/19 A2996 RMK A01 T03860185  RH  031%=      5-min Rain = 0
KES1 191905Z 15011KT 39/18 A2996 RMK A01 T03880183  RH  030%=      5-min Rain = 0
KES1 191906Z 15008KT 39/19 A2996 RMK A01 T03880185  RH  031%=      5-min Rain = 0
KES1 191907Z 18010G16KT 39/19 A2996 RMK A01 T03880185  RH  031%=      5-min Rain = 0
KES1 191908Z 17011KT 39/18 A2996 RMK A01 T03890180  RH  030%=      5-min Rain = 0
KES1 191909Z 16007KT 39/18 A2996 RMK A01 T03860177  RH  029%=      5-min Rain = 0
KES1 191910Z 17009KT 39/18 A2996 RMK A01 T03860180  RH  030%=      5-min Rain = 0
KES1 191911Z 17010KT 39/18 A2996 RMK A01 T03860177  RH  029%=      5-min Rain = 0
KES1 191912Z 14009KT 39/18 A2996 RMK A01 T03880184  RH  031%=      5-min Rain = 0
KES1 191913Z 15007KT 39/18 A2996 RMK A01 T03890183  RH  030%=      5-min Rain = 0
KES1 191914Z 17010KT 39/18 A2996 RMK A01 T03900184  RH  030%=      5-min Rain = 0
KES1 191915Z 16010G15KT 39/18 A2996 RMK A01 T03920179  RH  029%=      5-min Rain = 0
KES1 191916Z 17012KT 39/17 A2996 RMK A01 T03910172  RH  028%=      5-min Rain = 0
KES1 191917Z 18012KT 39/17 A2995 RMK A01 T03890169  RH  028%=      5-min Rain = 0
KES1 191918Z 16011KT 39/18 A2996 RMK A01 T03870175  RH  029%=      5-min Rain = 0
KES1 191919Z 16014G19KT 39/17 A2996 RMK A01 T03880173  RH  028%=      5-min Rain = 0
KES1 191920Z 15014G19KT 39/17 A2995 RMK A01 T03880168  RH  028%=      5-min Rain = 0
KES1 191921Z 14013KT 39/17 A2996 RMK A01 T03870171  RH  028%=      5-min Rain = 0
KES1 191922Z 14013KT 39/17 A2996 RMK A01 T03870167  RH  028%=      5-min Rain = 0
KES1 191923Z 14011KT 39/17 A2996 RMK A01 T03870165  RH  027%=      5-min Rain = 0
KES1 191924Z 14011KT 39/16 A2996 RMK A01 T03860163  RH  027%=      5-min Rain = 0
KES1 191925Z 15008KT 39/17 A2995 RMK A01 T03860167  RH  028%=      5-min Rain = 0
KES1 191926Z 16007KT 39/17 A2995 RMK A01 T03870174  RH  029%=      5-min Rain = 0
KES1 191927Z 16008G14KT 39/18 A2995 RMK A01 T03920180  RH  029%=      5-min Rain = 0
KES1 191928Z 16013KT 39/17 A2995 RMK A01 T03930170  RH  027%=      5-min Rain = 0
KES1 191929Z 15013G19KT 39/17 A2995 RMK A01 T03890169  RH  028%=      5-min Rain = 0
KES1 191930Z 16011KT 39/18 A2995 RMK A01 T03880177  RH  029%=      5-min Rain = 0
KES1 191931Z 16013KT 39/17 A2995 RMK A01 T03890174  RH  028%=      5-min Rain = 0
KES1 191932Z 15010KT 39/17 A2995 RMK A01 T03900174  RH  028%=      5-min Rain = 0
KES1 191933Z 15009KT 39/17 A2995 RMK A01 T03890170  RH  028%=      5-min Rain = 0
KES1 191934Z 15009G14KT 39/17 A2995 RMK A01 T03890173  RH  028%=      5-min Rain = 0
KES1 191935Z 14012KT 39/17 A2995 RMK A01 T03890174  RH  028%=      5-min Rain = 0
KES1 191936Z 17011KT 39/18 A2995 RMK A01 T03910175  RH  028%=      5-min Rain = 0
KES1 191937Z 16013KT 39/17 A2995 RMK A01 T03910166  RH  027%=      5-min Rain = 0
KES1 191938Z 16012KT 39/17 A2995 RMK A01 T03900165  RH  027%=      5-min Rain = 0
KES1 191939Z 16012G18KT 39/17 A2995 RMK A01 T03890166  RH  027%=      5-min Rain = 0
KES1 191940Z 16015KT 39/17 A2995 RMK A01 T03880168  RH  028%=      5-min Rain = 0
KES1 191941Z 16012KT 39/17 A2995 RMK A01 T03870170  RH  028%=      5-min Rain = 0
KES1 191942Z 14010KT 39/17 A2995 RMK A01 T03870173  RH  029%=      5-min Rain = 0
KES1 191943Z 14012KT 39/18 A2995 RMK A01 T03880175  RH  029%=      5-min Rain = 0
KES1 191944Z 14013KT 39/17 A2995 RMK A01 T03900171  RH  028%=      5-min Rain = 0
KES1 191945Z 16013KT 39/17 A2995 RMK A01 T03890172  RH  028%=      5-min Rain = 0
KES1 191946Z 16010KT 39/17 A2995 RMK A01 T03890172  RH  028%=      5-min Rain = 0
KES1 191947Z 16010KT 39/17 A2995 RMK A01 T03890172  RH  028%=      5-min Rain = 0
KES1 191948Z 15012G17KT 39/18 A2995 RMK A01 T03900176  RH  029%=      5-min Rain = 0
KES1 191949Z 15011G16KT 39/18 A2995 RMK A01 T03910176  RH  029%=      5-min Rain = 0
KES1 191950Z 14009KT 39/18 A2995 RMK A01 T03920180  RH  029%=      5-min Rain = 0
KES1 191951Z 15014KT 39/18 A2995 RMK A01 T03930176  RH  028%=      5-min Rain = 0
KES1 191952Z 15013KT 39/17 A2995 RMK A01 T03920171  RH  028%=      5-min Rain = 0
KES1 191953Z 15009G14KT 39/18 A2995 RMK A01 T03890177  RH  029%=      5-min Rain = 0
KES1 191954Z 16012KT 39/18 A2995 RMK A01 T03890179  RH  029%=      5-min Rain = 0
KES1 191955Z 14014KT 39/18 A2995 RMK A01 T03900180  RH  029%=      5-min Rain = 0
KES1 191956Z 14012KT 39/18 A2995 RMK A01 T03880182  RH  030%=      5-min Rain = 0
KES1 191957Z 17010KT 39/18 A2995 RMK A01 T03870182  RH  030%=      5-min Rain = 0
KES1 191958Z 15013KT 39/18 A2995 RMK A01 T03880182  RH  030%=      5-min Rain = 0
KES1 191959Z 15013G18KT 39/18 A2995 RMK A01 T03890182  RH  030%=      5-min Rain = 0
KES1 192000Z 14015KT 39/18 A2995 RMK A01 T03890180  RH  030%=      5-min Rain = 0
KES1 192001Z 15012KT 39/18 A2995 RMK A01 T03880181  RH  030%=      5-min Rain = 0
KES1 192002Z 16011KT 39/18 A2995 RMK A01 T03870183  RH  031%=      5-min Rain = 0
KES1 192003Z 14012KT 39/18 A2994 RMK A01 T03870182  RH  030%=      5-min Rain = 0
KES1 192004Z 15014KT 39/19 A2995 RMK A01 T03880187  RH  031%=      5-min Rain = 0
KES1 192005Z 16011KT 39/19 A2994 RMK A01 T03890187  RH  031%=      5-min Rain = 0
KES1 192006Z 15013G19KT 39/19 A2994 RMK A01 T03910185  RH  030%=      5-min Rain = 0
KES1 192007Z 15013KT 39/18 A2994 RMK A01 T03900183  RH  030%=      5-min Rain = 0
KES1 192008Z 15013KT 39/18 A2994 RMK A01 T03880184  RH  030%=      5-min Rain = 0
KES1 192009Z 15011KT 39/18 A2994 RMK A01 T03870184  RH  031%=      5-min Rain = 0
KES1 192010Z 14010KT 39/18 A2994 RMK A01 T03870183  RH  031%=      5-min Rain = 0
KES1 192011Z 15011KT 39/19 A2994 RMK A01 T03880186  RH  031%=      5-min Rain = 0
KES1 192012Z 16015KT 39/18 A2994 RMK A01 T03880184  RH  030%=      5-min Rain = 0
KES1 192013Z 17014KT 39/18 A2994 RMK A01 T03880182  RH  030%=      5-min Rain = 0
KES1 192014Z 16012KT 39/18 A2994 RMK A01 T03870181  RH  030%=      5-min Rain = 0
KES1 192015Z 15009G15KT 39/18 A2994 RMK A01 T03860183  RH  031%=      5-min Rain = 0
KES1 192016Z 16015KT 39/18 A2994 RMK A01 T03880184  RH  031%=      5-min Rain = 0
KES1 192017Z 14013G18KT 39/19 A2994 RMK A01 T03880188  RH  031%=      5-min Rain = 0
KES1 192018Z 14015KT 39/18 A2994 RMK A01 T03890184  RH  030%=      5-min Rain = 0
KES1 192019Z 15011KT 39/19 A2994 RMK A01 T03890187  RH  031%=      5-min Rain = 0
KES1 192020Z 16012KT 39/18 A2994 RMK A01 T03890181  RH  030%=      5-min Rain = 0
KES1 192021Z 14008KT 39/18 A2994 RMK A01 T03880184  RH  031%=      5-min Rain = 0
KES1 192022Z 15008G16KT 39/19 A2994 RMK A01 T03910191  RH  031%=      5-min Rain = 0
KES1 192023Z 14013G18KT 40/19 A2993 RMK A01 T03950186  RH  030%=      5-min Rain = 0
KES1 192024Z 17010KT 40/18 A2994 RMK A01 T03960184  RH  029%=      5-min Rain = 0
KES1 192025Z 15010G15KT 40/18 A2994 RMK A01 T03970184  RH  029%=      5-min Rain = 0
KES1 192026Z 15010KT 40/18 A2993 RMK A01 T03960184  RH  029%=      5-min Rain = 0
KES1 192027Z 15013KT 40/18 A2993 RMK A01 T03960184  RH  029%=      5-min Rain = 0
KES1 192028Z 13012KT 39/18 A2993 RMK A01 T03940181  RH  029%=      5-min Rain = 0
KES1 192029Z 13010KT 39/18 A2993 RMK A01 T03920183  RH  030%=      5-min Rain = 0
KES1 192030Z 15012KT 39/18 A2993 RMK A01 T03910183  RH  030%=      5-min Rain = 0
KES1 192031Z 13013KT 39/18 A2993 RMK A01 T03910184  RH  030%=      5-min Rain = 0
KES1 192032Z 14013KT 39/18 A2993 RMK A01 T03910180  RH  029%=      5-min Rain = 0
KES1 192033Z 15010G16KT 39/18 A2993 RMK A01 T03900184  RH  030%=      5-min Rain = 0
KES1 192034Z 15009KT 39/19 A2993 RMK A01 T03930188  RH  030%=      5-min Rain = 0
KES1 192035Z 14011KT 40/18 A2993 RMK A01 T03950183  RH  029%=      5-min Rain = 0
KES1 192036Z 14009KT 39/18 A2993 RMK A01 T03940182  RH  029%=      5-min Rain = 0
KES1 192037Z 15010KT 39/18 A2993 RMK A01 T03940182  RH  029%=      5-min Rain = 0
KES1 192038Z 16013KT 39/18 A2993 RMK A01 T03940178  RH  029%=      5-min Rain = 0
KES1 192039Z 15011KT 39/18 A2993 RMK A01 T03940178  RH  028%=      5-min Rain = 0
KES1 192040Z 15011KT 39/18 A2993 RMK A01 T03940176  RH  028%=      5-min Rain = 0
KES1 192041Z 15012KT 39/18 A2993 RMK A01 T03930175  RH  028%=      5-min Rain = 0
KES1 192042Z 14012G17KT 39/18 A2993 RMK A01 T03930175  RH  028%=      5-min Rain = 0
KES1 192043Z 15010KT 39/18 A2993 RMK A01 T03930179  RH  029%=      5-min Rain = 0
KES1 192044Z 15011KT 39/18 A2993 RMK A01 T03930178  RH  029%=      5-min Rain = 0
KES1 192045Z 16009G16KT 39/18 A2993 RMK A01 T03940184  RH  030%=      5-min Rain = 0
KES1 192046Z 17012KT 40/18 A2993 RMK A01 T03950178  RH  028%=      5-min Rain = 0
KES1 192047Z 16011KT 39/18 A2993 RMK A01 T03940179  RH  029%=      5-min Rain = 0
KES1 192048Z 16009KT 39/18 A2993 RMK A01 T03930180  RH  029%=      5-min Rain = 0
KES1 192049Z 18012KT 39/18 A2993 RMK A01 T03930184  RH  030%=      5-min Rain = 0
KES1 192050Z 17012KT 39/18 A2993 RMK A01 T03940181  RH  029%=      5-min Rain = 0
KES1 192051Z 17010KT 40/18 A2993 RMK A01 T03950179  RH  029%=      5-min Rain = 0
KES1 192052Z 16009KT 40/17 A2993 RMK A01 T03950174  RH  028%=      5-min Rain = 0
KES1 192053Z 16011KT 40/18 A2993 RMK A01 T03950175  RH  028%=      5-min Rain = 0
KES1 192054Z 16011KT 40/18 A2992 RMK A01 T03950177  RH  028%=      5-min Rain = 0
KES1 192055Z 16011KT 39/18 A2992 RMK A01 T03940177  RH  028%=      5-min Rain = 0
KES1 192056Z 15010KT 39/18 A2992 RMK A01 T03940178  RH  029%=      5-min Rain = 0
KES1 192057Z 14010KT 39/18 A2992 RMK A01 T03940182  RH  029%=      5-min Rain = 0
KES1 192058Z 16010KT 40/19 A2992 RMK A01 T03960185  RH  029%=      5-min Rain = 0
KES1 192059Z 16012KT 40/18 A2992 RMK A01 T03970177  RH  028%=      5-min Rain = 0
KES1 192100Z 16014KT 40/18 A2992 RMK A01 T03960177  RH  028%=      5-min Rain = 0
KES1 192101Z 15011KT 39/17 A2992 RMK A01 T03940173  RH  028%=      5-min Rain = 0
KES1 192102Z 16012KT 39/17 A2992 RMK A01 T03930173  RH  028%=      5-min Rain = 0
KES1 192103Z 14012KT 39/17 A2992 RMK A01 T03920173  RH  028%=      5-min Rain = 0
KES1 192104Z 14012G17KT 39/17 A2992 RMK A01 T03920173  RH  028%=      5-min Rain = 0
KES1 192105Z 14010KT 39/18 A2992 RMK A01 T03920178  RH  029%=      5-min Rain = 0
KES1 192106Z 14010KT 39/18 A2992 RMK A01 T03940178  RH  028%=      5-min Rain = 0
KES1 192107Z 16009KT 40/18 A2992 RMK A01 T03950178  RH  028%=      5-min Rain = 0
KES1 192108Z 19008G13KT 40/18 A2992 RMK A01 T03970177  RH  028%=      5-min Rain = 0
KES1 192109Z 16010KT 40/17 A2992 RMK A01 T03990174  RH  027%=      5-min Rain = 0
KES1 192110Z 16011KT 40/18 A2992 RMK A01 T04000177  RH  027%=      5-min Rain = 0
KES1 192111Z 16013G18KT 40/17 A2992 RMK A01 T04000171  RH  026%=      5-min Rain = 0
KES1 192112Z 17013KT 40/17 A2992 RMK A01 T03980172  RH  027%=      5-min Rain = 0
KES1 192113Z 17012KT 40/17 A2992 RMK A01 T03970172  RH  027%=      5-min Rain = 0
KES1 192114Z 15010KT 40/17 A2992 RMK A01 T03950172  RH  027%=      5-min Rain = 0
KES1 192115Z 15009KT 40/17 A2992 RMK A01 T03950174  RH  028%=      5-min Rain = 0
KES1 192116Z 15010KT 40/18 A2992 RMK A01 T03950177  RH  028%=      5-min Rain = 0
KES1 192117Z 14010KT 40/18 A2991 RMK A01 T03970175  RH  028%=      5-min Rain = 0
KES1 192118Z 14010KT 40/17 A2991 RMK A01 T03970174  RH  027%=      5-min Rain = 0
KES1 192119Z 15011KT 40/18 A2991 RMK A01 T03970176  RH  028%=      5-min Rain = 0
KES1 192120Z 14010KT 40/17 A2991 RMK A01 T03970172  RH  027%=      5-min Rain = 0
KES1 192121Z 14010KT 40/17 A2991 RMK A01 T03960172  RH  027%=      5-min Rain = 0
KES1 192122Z 14007KT 40/18 A2991 RMK A01 T03960176  RH  028%=      5-min Rain = 0
KES1 192123Z 15011G17KT 40/18 A2991 RMK A01 T03970179  RH  028%=      5-min Rain = 0
KES1 192124Z 15014KT 40/17 A2991 RMK A01 T03990173  RH  027%=      5-min Rain = 0
KES1 192125Z 16012KT 40/17 A2991 RMK A01 T03980169  RH  026%=      5-min Rain = 0
KES1 192126Z 16009KT 40/17 A2991 RMK A01 T03970170  RH  027%=      5-min Rain = 0
KES1 192127Z 16007KT 40/17 A2991 RMK A01 T03980174  RH  027%=      5-min Rain = 0
KES1 192128Z 15011G16KT 40/17 A2991 RMK A01 T04000174  RH  027%=      5-min Rain = 0
KES1 192129Z 16012KT 40/17 A2991 RMK A01 T04000168  RH  026%=      5-min Rain = 0
KES1 192130Z 15009KT 40/17 A2991 RMK A01 T03990172  RH  027%=      5-min Rain = 0
KES1 192131Z 15009KT 40/17 A2991 RMK A01 T03990168  RH  026%=      5-min Rain = 0
KES1 192132Z 15010KT 40/17 A2991 RMK A01 T03990172  RH  027%=      5-min Rain = 0
KES1 192133Z 15009KT 40/17 A2991 RMK A01 T04000174  RH  027%=      5-min Rain = 0
KES1 192134Z 15010KT 40/17 A2991 RMK A01 T04020173  RH  026%=      5-min Rain = 0
KES1 192135Z 14014KT 40/17 A2991 RMK A01 T04010171  RH  026%=      5-min Rain = 0
KES1 192136Z 14012KT 40/17 A2991 RMK A01 T03990170  RH  026%=      5-min Rain = 0
KES1 192137Z 13011KT 40/17 A2991 RMK A01 T03980171  RH  027%=      5-min Rain = 0
KES1 192138Z 14012G17KT 40/17 A2991 RMK A01 T03980168  RH  026%=      5-min Rain = 0
KES1 192139Z 14010G15KT 40/17 A299 RMK A01 T03960171  RH  027%=      5-min Rain = 0
KES1 192140Z 15015KT 40/17 A299 RMK A01 T03960166  RH  026%=      5-min Rain = 0
KES1 192141Z 16011KT 40/17 A299 RMK A01 T03960165  RH  026%=      5-min Rain = 0
KES1 192142Z 16009KT 40/17 A299 RMK A01 T03970166  RH  026%=      5-min Rain = 0
KES1 192143Z 16012KT 40/17 A299 RMK A01 T03980166  RH  026%=      5-min Rain = 0
KES1 192144Z 16010KT 40/16 A299 RMK A01 T04000164  RH  025%=      5-min Rain = 0
KES1 192145Z 17008KT 40/16 A299 RMK A01 T03990162  RH  025%=      5-min Rain = 0
KES1 192146Z 18011KT 40/16 A299 RMK A01 T03990163  RH  025%=      5-min Rain = 0
KES1 192147Z 18008KT 40/17 A299 RMK A01 T04000165  RH  025%=      5-min Rain = 0
KES1 192148Z 15009KT 40/17 A299 RMK A01 T04020167  RH  025%=      5-min Rain = 0
KES1 192149Z 14014KT 40/17 A299 RMK A01 T04020169  RH  026%=      5-min Rain = 0
KES1 192150Z 14010KT 40/17 A299 RMK A01 T03990165  RH  026%=      5-min Rain = 0
KES1 192151Z 15011KT 40/17 A299 RMK A01 T03970169  RH  027%=      5-min Rain = 0
KES1 192152Z 15009KT 40/17 A299 RMK A01 T03970171  RH  027%=      5-min Rain = 0
KES1 192153Z 14009KT 40/17 A299 RMK A01 T03980170  RH  027%=      5-min Rain = 0
KES1 192154Z 14009KT 40/17 A299 RMK A01 T03980170  RH  027%=      5-min Rain = 0
KES1 192155Z 15010KT 40/17 A299 RMK A01 T03980172  RH  027%=      5-min Rain = 0
KES1 192156Z 16010KT 40/17 A299 RMK A01 T03990166  RH  026%=      5-min Rain = 0
KES1 192157Z 15008KT 40/17 A299 RMK A01 T03980165  RH  026%=      5-min Rain = 0
KES1 192158Z 16007KT 40/17 A299 RMK A01 T03980170  RH  026%=      5-min Rain = 0
KES1 192159Z 18009KT 40/17 A299 RMK A01 T04010169  RH  026%=      5-min Rain = 0
KES1 192200Z 18009KT 40/17 A299 RMK A01 T04010166  RH  025%=      5-min Rain = 0
KES1 192201Z 16007KT 40/17 A299 RMK A01 T04010170  RH  026%=      5-min Rain = 0
KES1 192202Z 17008KT 40/16 A299 RMK A01 T04020163  RH  025%=      5-min Rain = 0
KES1 192203Z 16009KT 40/17 A299 RMK A01 T04000165  RH  025%=      5-min Rain = 0
KES1 192204Z 17012KT 40/17 A299 RMK A01 T03990166  RH  026%=      5-min Rain = 0
KES1 192205Z 16012G17KT 40/17 A299 RMK A01 T03980172  RH  027%=      5-min Rain = 0
KES1 192206Z 15009KT 40/17 A299 RMK A01 T03990172  RH  027%=      5-min Rain = 0
KES1 192207Z 16007G13KT 40/18 A299 RMK A01 T03990177  RH  027%=      5-min Rain = 0
KES1 192208Z 16011KT 40/17 A299 RMK A01 T04010173  RH  027%=      5-min Rain = 0
KES1 192209Z 15011KT 40/17 A299 RMK A01 T04000171  RH  026%=      5-min Rain = 0
KES1 192210Z 16011KT 40/17 A299 RMK A01 T04000169  RH  026%=      5-min Rain = 0
KES1 192211Z 17013KT 40/17 A299 RMK A01 T03990171  RH  027%=      5-min Rain = 0
KES1 192212Z 16013KT 40/17 A299 RMK A01 T03980167  RH  026%=      5-min Rain = 0
KES1 192213Z 17009KT 40/17 A299 RMK A01 T03960171  RH  027%=      5-min Rain = 0
KES1 192214Z 15011KT 40/17 A299 RMK A01 T03970172  RH  027%=      5-min Rain = 0
KES1 192215Z 14012KT 40/17 A299 RMK A01 T03980172  RH  027%=      5-min Rain = 0
KES1 192216Z 15011KT 40/17 A299 RMK A01 T03980170  RH  027%=      5-min Rain = 0
KES1 192217Z 14012KT 40/17 A299 RMK A01 T03970169  RH  026%=      5-min Rain = 0
KES1 192218Z 14012KT 40/17 A299 RMK A01 T03970170  RH  027%=      5-min Rain = 0
KES1 192219Z 15011KT 40/17 A299 RMK A01 T03970173  RH  027%=      5-min Rain = 0
KES1 192220Z 15013KT 40/17 A299 RMK A01 T03980170  RH  026%=      5-min Rain = 0
KES1 192221Z 14015KT 40/17 A299 RMK A01 T03980170  RH  027%=      5-min Rain = 0
KES1 192222Z 14013KT 40/17 A299 RMK A01 T03960169  RH  027%=      5-min Rain = 0
KES1 192223Z 15011KT 40/17 A299 RMK A01 T03960170  RH  027%=      5-min Rain = 0
KES1 192224Z 16010KT 40/17 A299 RMK A01 T03960171  RH  027%=      5-min Rain = 0
KES1 192225Z 16009KT 40/17 A299 RMK A01 T03960168  RH  026%=      5-min Rain = 0
KES1 192226Z 16011KT 40/17 A299 RMK A01 T03950166  RH  026%=      5-min Rain = 0
KES1 192227Z 16009KT 40/17 A299 RMK A01 T03950168  RH  027%=      5-min Rain = 0
KES1 192228Z 16010KT 40/17 A299 RMK A01 T03950170  RH  027%=      5-min Rain = 0
KES1 192229Z 16008KT 40/17 A299 RMK A01 T03960170  RH  027%=      5-min Rain = 0
KES1 192230Z 14008G13KT 40/18 A299 RMK A01 T03970176  RH  028%=      5-min Rain = 0
KES1 192231Z 17010KT 40/17 A299 RMK A01 T03980170  RH  026%=      5-min Rain = 0
KES1 192232Z 17010KT 40/17 A299 RMK A01 T03980170  RH  027%=      5-min Rain = 0
KES1 192233Z 16008KT 40/17 A299 RMK A01 T03970174  RH  027%=      5-min Rain = 0
KES1 192234Z 15011KT 40/17 A299 RMK A01 T03980173  RH  027%=      5-min Rain = 0
KES1 192235Z 15012KT 40/17 A299 RMK A01 T03980171  RH  027%=      5-min Rain = 0
KES1 192236Z 15011KT 40/17 A299 RMK A01 T03970168  RH  026%=      5-min Rain = 0
KES1 192237Z 16012KT 40/17 A299 RMK A01 T03960167  RH  026%=      5-min Rain = 0
KES1 192238Z 15010KT 40/17 A299 RMK A01 T03950168  RH  027%=      5-min Rain = 0
KES1 192239Z 16009KT 40/17 A299 RMK A01 T03950169  RH  027%=      5-min Rain = 0
KES1 192240Z 15010KT 40/17 A299 RMK A01 T03960172  RH  027%=      5-min Rain = 0
KES1 192241Z 16009KT 40/17 A299 RMK A01 T03970171  RH  027%=      5-min Rain = 0
KES1 192242Z 17012KT 40/17 A299 RMK A01 T03970172  RH  027%=      5-min Rain = 0
KES1 192243Z 16015KT 40/17 A299 RMK A01 T03970170  RH  027%=      5-min Rain = 0
KES1 192244Z 16013KT 40/17 A299 RMK A01 T03970170  RH  027%=      5-min Rain = 0
KES1 192245Z 16011KT 40/17 A299 RMK A01 T03960170  RH  027%=      5-min Rain = 0
KES1 192246Z 15012KT 40/17 A299 RMK A01 T03950169  RH  027%=      5-min Rain = 0
KES1 192247Z 16008KT 40/17 A299 RMK A01 T03960169  RH  027%=      5-min Rain = 0
KES1 192248Z 16009KT 40/17 A299 RMK A01 T03950171  RH  027%=      5-min Rain = 0
KES1 192249Z 16011KT 40/17 A299 RMK A01 T03960170  RH  027%=      5-min Rain = 0
KES1 192250Z 16010KT 40/17 A299 RMK A01 T03970168  RH  026%=      5-min Rain = 0
KES1 192251Z 16008KT 40/17 A299 RMK A01 T03960169  RH  027%=      5-min Rain = 0
KES1 192252Z 14009G14KT 40/17 A299 RMK A01 T03970172  RH  027%=      5-min Rain = 0
KES1 192253Z 13007G13KT 40/17 A299 RMK A01 T03970174  RH  027%=      5-min Rain = 0
KES1 192254Z 13011KT 40/17 A299 RMK A01 T03980169  RH  026%=      5-min Rain = 0
KES1 192255Z 15009KT 40/17 A299 RMK A01 T03970167  RH  026%=      5-min Rain = 0
KES1 192256Z 14011KT 40/17 A299 RMK A01 T03970165  RH  026%=      5-min Rain = 0
KES1 192257Z 15013KT 40/17 A299 RMK A01 T03960165  RH  026%=      5-min Rain = 0
KES1 192258Z 18012KT 40/17 A299 RMK A01 T03970165  RH  026%=      5-min Rain = 0
KES1 192259Z 17012KT 40/16 A299 RMK A01 T03960164  RH  026%=      5-min Rain = 0
KES1 192300Z 16012KT 40/16 A299 RMK A01 T03960162  RH  025%=      5-min Rain = 0
KES1 192301Z 18012KT 40/16 A299 RMK A01 T03960163  RH  026%=      5-min Rain = 0
KES1 192302Z 18010KT 40/16 A299 RMK A01 T03960160  RH  025%=      5-min Rain = 0
KES1 192303Z 18008KT 40/16 A299 RMK A01 T03950163  RH  026%=      5-min Rain = 0
KES1 192304Z 17010KT 40/16 A299 RMK A01 T03960164  RH  026%=      5-min Rain = 0
KES1 192305Z 17011KT 40/16 A299 RMK A01 T03970164  RH  026%=      5-min Rain = 0
KES1 192306Z 18012KT 40/16 A299 RMK A01 T03960164  RH  026%=      5-min Rain = 0
KES1 192307Z 16011KT 40/16 A299 RMK A01 T03970163  RH  025%=      5-min Rain = 0
KES1 192308Z 17007KT 40/17 A299 RMK A01 T03970166  RH  026%=      5-min Rain = 0
KES1 192309Z 16009KT 40/17 A299 RMK A01 T03970166  RH  026%=      5-min Rain = 0
KES1 192310Z 15008KT 40/16 A299 RMK A01 T03970163  RH  025%=      5-min Rain = 0
KES1 192311Z 15010KT 40/16 A299 RMK A01 T03970163  RH  026%=      5-min Rain = 0
KES1 192312Z 15010KT 40/16 A299 RMK A01 T03970160  RH  025%=      5-min Rain = 0
KES1 192313Z 15009KT 40/16 A299 RMK A01 T03970163  RH  026%=      5-min Rain = 0
KES1 192314Z 16010KT 40/16 A299 RMK A01 T03960164  RH  026%=      5-min Rain = 0
KES1 192315Z 16009KT 40/16 A299 RMK A01 T03960164  RH  026%=      5-min Rain = 0
KES1 192316Z 16009KT 40/17 A299 RMK A01 T03960167  RH  026%=      5-min Rain = 0
KES1 192317Z 15008KT 40/17 A299 RMK A01 T03960169  RH  027%=      5-min Rain = 0
KES1 192318Z 16010KT 40/17 A299 RMK A01 T03970168  RH  026%=      5-min Rain = 0
KES1 192319Z 16011KT 40/16 A299 RMK A01 T03960159  RH  025%=      5-min Rain = 0
KES1 192320Z 16010KT 40/16 A299 RMK A01 T03960156  RH  025%=      5-min Rain = 0
KES1 192321Z 16010KT 40/15 A299 RMK A01 T03950154  RH  024%=      5-min Rain = 0
KES1 192322Z 16009KT 40/16 A299 RMK A01 T03950155  RH  024%=      5-min Rain = 0
KES1 192323Z 17009KT 40/16 A299 RMK A01 T03950155  RH  025%=      5-min Rain = 0
KES1 192324Z 17008KT 40/15 A299 RMK A01 T03950149  RH  024%=      5-min Rain = 0
KES1 192325Z 17009KT 40/16 A299 RMK A01 T03950155  RH  024%=      5-min Rain = 0
KES1 192326Z 17009KT 40/16 A299 RMK A01 T03960157  RH  025%=      5-min Rain = 0
KES1 192327Z 17009KT 40/16 A299 RMK A01 T03950158  RH  025%=      5-min Rain = 0
KES1 192328Z 16006KT 40/16 A299 RMK A01 T03950162  RH  026%=      5-min Rain = 0
KES1 192329Z 15007KT 40/17 A299 RMK A01 T03950167  RH  026%=      5-min Rain = 0
KES1 192330Z 16009KT 40/17 A299 RMK A01 T03950169  RH  027%=      5-min Rain = 0
KES1 192331Z 16011KT 40/17 A299 RMK A01 T03950169  RH  027%=      5-min Rain = 0
KES1 192332Z 15008KT 39/17 A299 RMK A01 T03940171  RH  027%=      5-min Rain = 0
KES1 192333Z 15007KT 39/17 A299 RMK A01 T03930174  RH  028%=      5-min Rain = 0
KES1 192334Z 16008KT 39/17 A299 RMK A01 T03940173  RH  028%=      5-min Rain = 0
KES1 192335Z 14008KT 39/17 A299 RMK A01 T03930171  RH  027%=      5-min Rain = 0
KES1 192336Z 15008KT 39/17 A299 RMK A01 T03930174  RH  028%=      5-min Rain = 0
KES1 192337Z 15008G14KT 39/18 A299 RMK A01 T03930177  RH  028%=      5-min Rain = 0
KES1 192338Z 15009KT 39/18 A299 RMK A01 T03930177  RH  028%=      5-min Rain = 0
KES1 192339Z 16009KT 39/18 A299 RMK A01 T03930176  RH  028%=      5-min Rain = 0
KES1 192340Z 17010KT 39/18 A299 RMK A01 T03930176  RH  028%=      5-min Rain = 0
KES1 192341Z 16008KT 39/18 A299 RMK A01 T03920177  RH  029%=      5-min Rain = 0
KES1 192342Z 16009KT 39/18 A299 RMK A01 T03910177  RH  029%=      5-min Rain = 0
KES1 192343Z 14011KT 39/18 A299 RMK A01 T03910178  RH  029%=      5-min Rain = 0
KES1 192344Z 14010KT 39/18 A299 RMK A01 T03910175  RH  029%=      5-min Rain = 0
KES1 192345Z 14007KT 39/18 A299 RMK A01 T03900178  RH  029%=      5-min Rain = 0
KES1 192346Z 14009KT 39/18 A299 RMK A01 T03900176  RH  029%=      5-min Rain = 0
KES1 192347Z 14014KT 39/17 A299 RMK A01 T03890174  RH  029%=      5-min Rain = 0
KES1 192348Z 14012KT 39/18 A299 RMK A01 T03880175  RH  029%=      5-min Rain = 0
KES1 192349Z 15013KT 39/18 A299 RMK A01 T03860175  RH  029%=      5-min Rain = 0
KES1 192350Z 14012KT 39/18 A299 RMK A01 T03860175  RH  029%=      5-min Rain = 0
KES1 192351Z 15011KT 39/18 A299 RMK A01 T03850177  RH  030%=      5-min Rain = 0
KES1 192352Z 15013KT 39/18 A299 RMK A01 T03850175  RH  029%=      5-min Rain = 0
KES1 192353Z 16010KT 39/18 A299 RMK A01 T03850177  RH  030%=      5-min Rain = 0
KES1 192354Z 15012KT 39/18 A299 RMK A01 T03850176  RH  030%=      5-min Rain = 0
KES1 192355Z 15010KT 38/18 A299 RMK A01 T03840176  RH  030%=      5-min Rain = 0
KES1 192356Z 15008KT 38/18 A299 RMK A01 T03840177  RH  030%=      5-min Rain = 0
KES1 192357Z 14010KT 38/18 A299 RMK A01 T03840178  RH  030%=      5-min Rain = 0
KES1 192358Z 15013G18KT 38/18 A299 RMK A01 T03840177  RH  030%=      5-min Rain = 0
KES1 192359Z 15013KT 38/18 A299 RMK A01 T03830176  RH  030%=      5-min Rain = 0
KES1 200000Z 15012KT 38/17 A299 RMK A01 T03830174  RH  030%=      5-min Rain = 0
KES1 200001Z 15012KT 38/17 A299 RMK A01 T03830173  RH  029%=      5-min Rain = 0
KES1 200002Z 14010KT 38/17 A299 RMK A01 T03830173  RH  029%=      5-min Rain = 0
KES1 200003Z 15010KT 38/18 A299 RMK A01 T03840175  RH  029%=      5-min Rain = 0
KES1 200004Z 15011KT 38/17 A299 RMK A01 T03840174  RH  029%=      5-min Rain = 0
KES1 200005Z 13009KT 38/18 A299 RMK A01 T03840176  RH  030%=      5-min Rain = 0
KES1 200006Z 13009KT 38/18 A299 RMK A01 T03840177  RH  030%=      5-min Rain = 0
KES1 200007Z 14011KT 38/18 A299 RMK A01 T03830176  RH  030%=      5-min Rain = 0
KES1 200008Z 14012KT 38/17 A299 RMK A01 T03830174  RH  030%=      5-min Rain = 0
KES1 200009Z 14010KT 38/18 A299 RMK A01 T03820175  RH  030%=      5-min Rain = 0
KES1 200010Z 14010KT 38/18 A299 RMK A01 T03820175  RH  030%=      5-min Rain = 0
KES1 200011Z 14010KT 38/18 A299 RMK A01 T03810175  RH  030%=      5-min Rain = 0
KES1 200012Z 14011KT 38/18 A299 RMK A01 T03810175  RH  030%=      5-min Rain = 0
KES1 200013Z 14012KT 38/17 A299 RMK A01 T03810174  RH  030%=      5-min Rain = 0
KES1 200014Z 14011KT 38/18 A299 RMK A01 T03810175  RH  030%=      5-min Rain = 0
KES1 200015Z 13010KT 38/18 A299 RMK A01 T03800176  RH  030%=      5-min Rain = 0
KES1 200016Z 14012KT 38/17 A299 RMK A01 T03800173  RH  030%=      5-min Rain = 0
KES1 200017Z 14011KT 38/17 A299 RMK A01 T03790173  RH  030%=      5-min Rain = 0
KES1 200018Z 14008KT 38/18 A2991 RMK A01 T03790175  RH  030%=      5-min Rain = 0
KES1 200019Z 14010KT 38/18 A2991 RMK A01 T03790176  RH  031%=      5-min Rain = 0
KES1 200020Z 14010KT 38/18 A2991 RMK A01 T03780175  RH  031%=      5-min Rain = 0
KES1 200021Z 13009KT 38/18 A2991 RMK A01 T03780176  RH  031%=      5-min Rain = 0
KES1 200022Z 14008KT 38/18 A2991 RMK A01 T03780176  RH  031%=      5-min Rain = 0
KES1 200023Z 14011KT 38/18 A2991 RMK A01 T03770175  RH  031%=      5-min Rain = 0
KES1 200024Z 14011KT 38/17 A2991 RMK A01 T03770174  RH  030%=      5-min Rain = 0
KES1 200025Z 14009KT 38/18 A2991 RMK A01 T03770175  RH  031%=      5-min Rain = 0
KES1 200026Z 14008KT 38/18 A2991 RMK A01 T03770177  RH  031%=      5-min Rain = 0
KES1 200027Z 14008KT 38/18 A2991 RMK A01 T03760177  RH  031%=      5-min Rain = 0
KES1 200028Z 15008KT 38/18 A2991 RMK A01 T03760179  RH  032%=      5-min Rain = 0
KES1 200029Z 14009KT 38/17 A2991 RMK A01 T03750174  RH  031%=      5-min Rain = 0
KES1 200030Z 15010KT 38/18 A2991 RMK A01 T03750176  RH  031%=      5-min Rain = 0
KES1 200031Z 14009KT 38/18 A2991 RMK A01 T03750176  RH  031%=      5-min Rain = 0
KES1 200032Z 14008KT 37/18 A2991 RMK A01 T03740177  RH  032%=      5-min Rain = 0
KES1 200033Z 14009KT 37/18 A2991 RMK A01 T03740177  RH  031%=      5-min Rain = 0
KES1 200034Z 14009KT 37/18 A2991 RMK A01 T03730177  RH  032%=      5-min Rain = 0
KES1 200035Z 14008KT 37/18 A2991 RMK A01 T03730177  RH  032%=      5-min Rain = 0
KES1 200036Z 14008KT 37/18 A2991 RMK A01 T03730178  RH  032%=      5-min Rain = 0
KES1 200037Z 13010KT 37/18 A2991 RMK A01 T03710177  RH  032%=      5-min Rain = 0
KES1 200038Z 14009KT 37/18 A2991 RMK A01 T03710176  RH  032%=      5-min Rain = 0
KES1 200039Z 13008KT 37/18 A2991 RMK A01 T03710177  RH  032%=      5-min Rain = 0
KES1 200040Z 14007KT 37/18 A2991 RMK A01 T03700180  RH  033%=      5-min Rain = 0
KES1 200041Z 13008KT 37/18 A2991 RMK A01 T03680178  RH  033%=      5-min Rain = 0
KES1 200042Z 14008KT 37/18 A2991 RMK A01 T03670179  RH  033%=      5-min Rain = 0
KES1 200043Z 13008KT 37/18 A2991 RMK A01 T03670180  RH  033%=      5-min Rain = 0
KES1 200044Z 14008KT 37/18 A2991 RMK A01 T03660180  RH  034%=      5-min Rain = 0
KES1 200045Z 14007KT 37/18 A2991 RMK A01 T03650179  RH  033%=      5-min Rain = 0
KES1 200046Z 14009KT 37/18 A2992 RMK A01 T03650180  RH  034%=      5-min Rain = 0
KES1 200047Z 13008KT 36/18 A2992 RMK A01 T03640178  RH  033%=      5-min Rain = 0
KES1 200048Z 14007KT 36/18 A2992 RMK A01 T03640180  RH  034%=      5-min Rain = 0
KES1 200049Z 14006KT 36/18 A2992 RMK A01 T03640181  RH  034%=      5-min Rain = 0
KES1 200050Z 14007KT 36/18 A2992 RMK A01 T03630181  RH  034%=      5-min Rain = 0
KES1 200051Z 14008KT 36/18 A2992 RMK A01 T03620180  RH  034%=      5-min Rain = 0
KES1 200052Z 14007KT 36/18 A2992 RMK A01 T03620179  RH  034%=      5-min Rain = 0
KES1 200053Z 14008KT 36/18 A2992 RMK A01 T03610180  RH  034%=      5-min Rain = 0
KES1 200054Z 14007KT 36/18 A2992 RMK A01 T03610180  RH  035%=      5-min Rain = 0
KES1 200055Z 14009KT 36/18 A2992 RMK A01 T03600180  RH  035%=      5-min Rain = 0
KES1 200056Z 15008KT 36/18 A2992 RMK A01 T03590178  RH  034%=      5-min Rain = 0
KES1 200057Z 15008KT 36/18 A2992 RMK A01 T03590180  RH  035%=      5-min Rain = 0
KES1 200058Z 14007KT 36/18 A2992 RMK A01 T03590180  RH  035%=      5-min Rain = 0
KES1 200059Z 14007KT 36/18 A2992 RMK A01 T03580180  RH  035%=      5-min Rain = 0
KES1 200100Z 14007KT 36/18 A2992 RMK A01 T03580180  RH  035%=      5-min Rain = 0
KES1 200101Z 14006KT 36/18 A2992 RMK A01 T03570180  RH  035%=      5-min Rain = 0
KES1 200102Z 14009KT 36/18 A2992 RMK A01 T03560180  RH  035%=      5-min Rain = 0
KES1 200103Z 14008KT 36/18 A2992 RMK A01 T03560178  RH  035%=      5-min Rain = 0
KES1 200104Z 14008KT 36/18 A2992 RMK A01 T03560179  RH  035%=      5-min Rain = 0
KES1 200105Z 14009KT 36/18 A2992 RMK A01 T03560180  RH  035%=      5-min Rain = 0
KES1 200106Z 14008KT 36/18 A2992 RMK A01 T03550179  RH  035%=      5-min Rain = 0
KES1 200107Z 14008KT 36/18 A2992 RMK A01 T03550179  RH  035%=      5-min Rain = 0
KES1 200108Z 14007G12KT 36/18 A2992 RMK A01 T03550180  RH  036%=      5-min Rain = 0
KES1 200109Z 14006KT 35/18 A2992 RMK A01 T03540178  RH  035%=      5-min Rain = 0
KES1 200110Z 14007KT 35/18 A2992 RMK A01 T03530180  RH  036%=      5-min Rain = 0
KES1 200111Z 14009KT 35/18 A2992 RMK A01 T03520179  RH  036%=      5-min Rain = 0
KES1 200112Z 14008KT 35/18 A2992 RMK A01 T03520178  RH  036%=      5-min Rain = 0
KES1 200113Z 14006KT 35/18 A2992 RMK A01 T03520180  RH  036%=      5-min Rain = 0
KES1 200114Z 15007KT 35/18 A2992 RMK A01 T03500180  RH  037%=      5-min Rain = 0
KES1 200115Z 15007KT 35/18 A2992 RMK A01 T03490179  RH  037%=      5-min Rain = 0
KES1 200116Z 14007KT 35/18 A2992 RMK A01 T03480178  RH  037%=      5-min Rain = 0
KES1 200117Z 14007KT 35/18 A2992 RMK A01 T03480179  RH  037%=      5-min Rain = 0
KES1 200118Z 15007KT 35/18 A2992 RMK A01 T03470178  RH  037%=      5-min Rain = 0
KES1 200119Z 14007KT 35/18 A2992 RMK A01 T03470178  RH  037%=      5-min Rain = 0
KES1 200120Z 14007KT 35/18 A2992 RMK A01 T03460178  RH  037%=      5-min Rain = 0
KES1 200121Z 14008KT 35/18 A2992 RMK A01 T03460178  RH  037%=      5-min Rain = 0
KES1 200122Z 14007KT 35/18 A2992 RMK A01 T03450178  RH  037%=      5-min Rain = 0
KES1 200123Z 14008KT 35/18 A2992 RMK A01 T03450177  RH  037%=      5-min Rain = 0
KES1 200124Z 14009KT 35/18 A2992 RMK A01 T03450176  RH  037%=      5-min Rain = 0
KES1 200125Z 14009KT 35/18 A2992 RMK A01 T03450176  RH  037%=      5-min Rain = 0
KES1 200126Z 14009KT 35/18 A2992 RMK A01 T03450176  RH  037%=      5-min Rain = 0
KES1 200127Z 14008KT 35/18 A2992 RMK A01 T03450176  RH  037%=      5-min Rain = 0
KES1 200128Z 14009KT 35/18 A2992 RMK A01 T03450176  RH  037%=      5-min Rain = 0
KES1 200129Z 14009KT 34/18 A2992 RMK A01 T03440175  RH  037%=      5-min Rain = 0
KES1 200130Z 14009KT 35/18 A2992 RMK A01 T03450176  RH  037%=      5-min Rain = 0
KES1 200131Z 14009KT 34/18 A2992 RMK A01 T03440176  RH  037%=      5-min Rain = 0
KES1 200132Z 14008KT 34/18 A2992 RMK A01 T03440176  RH  037%=      5-min Rain = 0
KES1 200133Z 14009KT 34/18 A2992 RMK A01 T03440176  RH  037%=      5-min Rain = 0
KES1 200134Z 14007KT 34/18 A2992 RMK A01 T03430176  RH  037%=      5-min Rain = 0
KES1 200135Z 14008KT 34/18 A2992 RMK A01 T03430175  RH  037%=      5-min Rain = 0
KES1 200136Z 14010KT 34/18 A2992 RMK A01 T03420176  RH  037%=      5-min Rain = 0
KES1 200137Z 15008KT 34/17 A2992 RMK A01 T03420174  RH  037%=      5-min Rain = 0
KES1 200138Z 14008KT 34/18 A2992 RMK A01 T03420175  RH  037%=      5-min Rain = 0
KES1 200139Z 14010KT 34/17 A2993 RMK A01 T03420174  RH  037%=      5-min Rain = 0
KES1 200140Z 15009KT 34/17 A2992 RMK A01 T03420173  RH  037%=      5-min Rain = 0
KES1 200141Z 14008KT 34/17 A2993 RMK A01 T03420174  RH  037%=      5-min Rain = 0
KES1 200142Z 14008KT 34/17 A2993 RMK A01 T03420174  RH  037%=      5-min Rain = 0
KES1 200143Z 14009KT 34/17 A2993 RMK A01 T03420173  RH  037%=      5-min Rain = 0
KES1 200144Z 15009KT 34/17 A2993 RMK A01 T03410173  RH  037%=      5-min Rain = 0
KES1 200145Z 14008KT 34/17 A2993 RMK A01 T03410172  RH  037%=      5-min Rain = 0
KES1 200146Z 15009KT 34/17 A2993 RMK A01 T03410173  RH  037%=      5-min Rain = 0
KES1 200147Z 15009KT 34/17 A2993 RMK A01 T03410172  RH  037%=      5-min Rain = 0
KES1 200148Z 15008KT 34/17 A2993 RMK A01 T03410172  RH  037%=      5-min Rain = 0
KES1 200149Z 15008KT 34/17 A2993 RMK A01 T03410173  RH  037%=      5-min Rain = 0
KES1 200150Z 15008KT 34/17 A2993 RMK A01 T03400172  RH  037%=      5-min Rain = 0
KES1 200151Z 14008KT 34/17 A2993 RMK A01 T03400172  RH  037%=      5-min Rain = 0
KES1 200152Z 14007KT 34/17 A2993 RMK A01 T03400174  RH  037%=      5-min Rain = 0
KES1 200153Z 14007KT 34/17 A2993 RMK A01 T03380174  RH  038%=      5-min Rain = 0
KES1 200154Z 15009KT 34/17 A2993 RMK A01 T03370172  RH  037%=      5-min Rain = 0
KES1 200155Z 14008KT 34/17 A2993 RMK A01 T03370173  RH  038%=      5-min Rain = 0
KES1 200156Z 14008KT 34/17 A2993 RMK A01 T03370173  RH  038%=      5-min Rain = 0
KES1 200157Z 14010KT 34/17 A2993 RMK A01 T03370173  RH  038%=      5-min Rain = 0
KES1 200158Z 14008KT 34/17 A2993 RMK A01 T03370173  RH  038%=      5-min Rain = 0
KES1 200159Z 15009KT 34/17 A2993 RMK A01 T03360172  RH  038%=      5-min Rain = 0
KES1 200200Z 14008KT 34/17 A2993 RMK A01 T03360172  RH  038%=      5-min Rain = 0
KES1 200201Z 15008KT 34/17 A2993 RMK A01 T03360173  RH  038%=      5-min Rain = 0
KES1 200202Z 14007KT 34/17 A2993 RMK A01 T03360173  RH  038%=      5-min Rain = 0
KES1 200203Z 14008KT 34/17 A2993 RMK A01 T03360173  RH  038%=      5-min Rain = 0
KES1 200204Z 15007KT 34/17 A2993 RMK A01 T03350172  RH  038%=      5-min Rain = 0
KES1 200205Z 14009KT 34/17 A2993 RMK A01 T03350173  RH  038%=      5-min Rain = 0
KES1 200206Z 15008KT 33/17 A2993 RMK A01 T03340171  RH  038%=      5-min Rain = 0
KES1 200207Z 14008KT 34/17 A2993 RMK A01 T03350172  RH  038%=      5-min Rain = 0
KES1 200208Z 15009KT 34/17 A2993 RMK A01 T03350172  RH  038%=      5-min Rain = 0
KES1 200209Z 15008KT 34/17 A2993 RMK A01 T03350171  RH  038%=      5-min Rain = 0
KES1 200210Z 15009KT 34/17 A2993 RMK A01 T03350171  RH  038%=      5-min Rain = 0
KES1 200211Z 15009KT 34/17 A2993 RMK A01 T03350171  RH  038%=      5-min Rain = 0
KES1 200212Z 15009KT 34/17 A2993 RMK A01 T03350171  RH  038%=      5-min Rain = 0
KES1 200213Z 15007KT 34/17 A2993 RMK A01 T03350172  RH  038%=      5-min Rain = 0
KES1 200214Z 14008KT 33/17 A2993 RMK A01 T03340171  RH  038%=      5-min Rain = 0
KES1 200215Z 15008KT 33/17 A2993 RMK A01 T03340170  RH  038%=      5-min Rain = 0
KES1 200216Z 15008KT 33/17 A2993 RMK A01 T03340172  RH  038%=      5-min Rain = 0
KES1 200217Z 15009KT 33/17 A2993 RMK A01 T03340171  RH  038%=      5-min Rain = 0
KES1 200218Z 15009KT 33/17 A2993 RMK A01 T03340171  RH  038%=      5-min Rain = 0
KES1 200219Z 15009KT 33/17 A2993 RMK A01 T03340170  RH  038%=      5-min Rain = 0
KES1 200220Z 15010KT 33/17 A2993 RMK A01 T03340170  RH  038%=      5-min Rain = 0
KES1 200221Z 16009KT 34/17 A2993 RMK A01 T03350170  RH  038%=      5-min Rain = 0
KES1 200222Z 15009KT 34/17 A2993 RMK A01 T03350171  RH  038%=      5-min Rain = 0
KES1 200223Z 15009KT 33/17 A2993 RMK A01 T03340171  RH  038%=      5-min Rain = 0
KES1 200224Z 15009KT 33/17 A2994 RMK A01 T03340171  RH  038%=      5-min Rain = 0
KES1 200225Z 15008KT 33/17 A2994 RMK A01 T03330171  RH  038%=      5-min Rain = 0
KES1 200226Z 15008KT 33/17 A2994 RMK A01 T03330172  RH  038%=      5-min Rain = 0
KES1 200227Z 15007KT 33/17 A2994 RMK A01 T03320172  RH  038%=      5-min Rain = 0
KES1 200228Z 15009KT 33/17 A2994 RMK A01 T03320172  RH  039%=      5-min Rain = 0
KES1 200229Z 15008KT 33/17 A2994 RMK A01 T03310172  RH  039%=      5-min Rain = 0
KES1 200230Z 15008KT 33/17 A2994 RMK A01 T03310173  RH  039%=      5-min Rain = 0
KES1 200231Z 15009KT 33/17 A2994 RMK A01 T03310172  RH  039%=      5-min Rain = 0
KES1 200232Z 15008KT 33/17 A2994 RMK A01 T03300171  RH  039%=      5-min Rain = 0
KES1 200233Z 15009KT 33/17 A2994 RMK A01 T03300172  RH  039%=      5-min Rain = 0
KES1 200234Z 15009KT 33/17 A2994 RMK A01 T03300172  RH  039%=      5-min Rain = 0
KES1 200235Z 15008KT 33/17 A2994 RMK A01 T03300173  RH  039%=      5-min Rain = 0
KES1 200236Z 15009KT 33/17 A2994 RMK A01 T03300173  RH  039%=      5-min Rain = 0
KES1 200237Z 15008KT 33/17 A2994 RMK A01 T03290173  RH  039%=      5-min Rain = 0
KES1 200238Z 15008KT 33/17 A2994 RMK A01 T03290172  RH  039%=      5-min Rain = 0
KES1 200239Z 15009KT 33/17 A2994 RMK A01 T03290172  RH  039%=      5-min Rain = 0
KES1 200240Z 15009KT 33/17 A2994 RMK A01 T03300173  RH  039%=      5-min Rain = 0
KES1 200241Z 15009KT 33/17 A2994 RMK A01 T03290172  RH  039%=      5-min Rain = 0
KES1 200242Z 14009KT 33/17 A2994 RMK A01 T03290172  RH  039%=      5-min Rain = 0
KES1 200243Z 15008KT 33/17 A2994 RMK A01 T03290173  RH  039%=      5-min Rain = 0
KES1 200244Z 15008KT 33/17 A2994 RMK A01 T03290174  RH  040%=      5-min Rain = 0
KES1 200245Z 15009KT 33/17 A2994 RMK A01 T03280173  RH  040%=      5-min Rain = 0
KES1 200246Z 15010KT 33/17 A2994 RMK A01 T03280173  RH  040%=      5-min Rain = 0
KES1 200247Z 15010KT 33/17 A2994 RMK A01 T03280173  RH  040%=      5-min Rain = 0
KES1 200248Z 15010KT 33/17 A2994 RMK A01 T03280173  RH  040%=      5-min Rain = 0
KES1 200249Z 15010KT 33/17 A2994 RMK A01 T03280172  RH  039%=      5-min Rain = 0
KES1 200250Z 15009KT 33/17 A2994 RMK A01 T03290173  RH  039%=      5-min Rain = 0
KES1 200251Z 15009KT 33/17 A2994 RMK A01 T03280174  RH  040%=      5-min Rain = 0
KES1 200252Z 15009KT 33/17 A2994 RMK A01 T03280174  RH  040%=      5-min Rain = 0
KES1 200253Z 15008KT 33/17 A2995 RMK A01 T03270173  RH  040%=      5-min Rain = 0
KES1 200254Z 15009KT 33/17 A2995 RMK A01 T03270174  RH  040%=      5-min Rain = 0
KES1 200255Z 15009KT 33/17 A2995 RMK A01 T03270174  RH  040%=      5-min Rain = 0
KES1 200256Z 16008KT 33/17 A2995 RMK A01 T03270174  RH  040%=      5-min Rain = 0
KES1 200257Z 15010KT 33/17 A2995 RMK A01 T03260173  RH  040%=      5-min Rain = 0
KES1 200258Z 16009KT 33/17 A2995 RMK A01 T03260173  RH  040%=      5-min Rain = 0
KES1 200259Z 15009KT 33/17 A2995 RMK A01 T03260174  RH  040%=      5-min Rain = 0
KES1 200300Z 16008KT 33/17 A2995 RMK A01 T03260174  RH  040%=      5-min Rain = 0
KES1 200301Z 15008KT 33/18 A2995 RMK A01 T03250175  RH  041%=      5-min Rain = 0
KES1 200302Z 15009KT 33/17 A2995 RMK A01 T03250174  RH  041%=      5-min Rain = 0
KES1 200303Z 16009KT 32/17 A2995 RMK A01 T03240174  RH  041%=      5-min Rain = 0
KES1 200304Z 15009KT 32/17 A2995 RMK A01 T03240174  RH  041%=      5-min Rain = 0
KES1 200305Z 16009KT 32/17 A2995 RMK A01 T03240174  RH  041%=      5-min Rain = 0
KES1 200306Z 15008KT 32/18 A2995 RMK A01 T03240175  RH  041%=      5-min Rain = 0
KES1 200307Z 15009KT 32/17 A2995 RMK A01 T03230174  RH  041%=      5-min Rain = 0
KES1 200308Z 15009KT 32/17 A2995 RMK A01 T03230174  RH  041%=      5-min Rain = 0
KES1 200309Z 15009KT 32/18 A2995 RMK A01 T03230175  RH  041%=      5-min Rain = 0
KES1 200310Z 15009KT 32/18 A2995 RMK A01 T03230175  RH  041%=      5-min Rain = 0
KES1 200311Z 15008KT 32/18 A2995 RMK A01 T03220175  RH  042%=      5-min Rain = 0
KES1 200312Z 15009KT 32/18 A2995 RMK A01 T03220175  RH  042%=      5-min Rain = 0
KES1 200313Z 15009KT 32/18 A2995 RMK A01 T03220175  RH  042%=      5-min Rain = 0
KES1 200314Z 15008KT 32/18 A2995 RMK A01 T03210176  RH  042%=      5-min Rain = 0
KES1 200315Z 15008KT 32/18 A2995 RMK A01 T03210176  RH  042%=      5-min Rain = 0
KES1 200316Z 15007KT 32/18 A2996 RMK A01 T03200177  RH  042%=      5-min Rain = 0
KES1 200317Z 15007KT 32/18 A2996 RMK A01 T03200177  RH  043%=      5-min Rain = 0
KES1 200318Z 15008KT 32/18 A2996 RMK A01 T03190176  RH  043%=      5-min Rain = 0
KES1 200319Z 15008KT 32/18 A2996 RMK A01 T03190177  RH  043%=      5-min Rain = 0
KES1 200320Z 15008KT 32/18 A2996 RMK A01 T03180177  RH  043%=      5-min Rain = 0
KES1 200321Z 15008KT 32/18 A2996 RMK A01 T03180177  RH  043%=      5-min Rain = 0
KES1 200322Z 15008KT 32/18 A2996 RMK A01 T03180178  RH  043%=      5-min Rain = 0
KES1 200323Z 15008KT 32/18 A2996 RMK A01 T03170177  RH  043%=      5-min Rain = 0
KES1 200324Z 15007KT 32/18 A2996 RMK A01 T03160177  RH  044%=      5-min Rain = 0
KES1 200325Z 15008KT 32/18 A2996 RMK A01 T03160178  RH  044%=      5-min Rain = 0
KES1 200326Z 15008KT 32/18 A2996 RMK A01 T03160178  RH  044%=      5-min Rain = 0
KES1 200327Z 15008KT 32/18 A2996 RMK A01 T03160178  RH  044%=      5-min Rain = 0
KES1 200328Z 15008KT 32/18 A2996 RMK A01 T03150178  RH  044%=      5-min Rain = 0
KES1 200329Z 15008KT 32/18 A2996 RMK A01 T03150178  RH  044%=      5-min Rain = 0
KES1 200330Z 15009KT 32/18 A2996 RMK A01 T03150178  RH  044%=      5-min Rain = 0
KES1 200331Z 15009KT 32/18 A2996 RMK A01 T03150177  RH  044%=      5-min Rain = 0
KES1 200332Z 15009KT 32/18 A2996 RMK A01 T03150178  RH  044%=      5-min Rain = 0
KES1 200333Z 15009KT 32/18 A2996 RMK A01 T03150178  RH  044%=      5-min Rain = 0
KES1 200334Z 15009KT 32/18 A2996 RMK A01 T03150177  RH  044%=      5-min Rain = 0
KES1 200335Z 15009KT 32/18 A2996 RMK A01 T03150178  RH  044%=      5-min Rain = 0
KES1 200336Z 15010KT 32/18 A2996 RMK A01 T03150178  RH  044%=      5-min Rain = 0
KES1 200337Z 15009KT 32/18 A2996 RMK A01 T03150178  RH  044%=      5-min Rain = 0
KES1 200338Z 15009KT 32/18 A2996 RMK A01 T03150179  RH  044%=      5-min Rain = 0
KES1 200339Z 14008KT 32/18 A2996 RMK A01 T03150179  RH  044%=      5-min Rain = 0
KES1 200340Z 14008KT 31/18 A2996 RMK A01 T03140179  RH  045%=      5-min Rain = 0
KES1 200341Z 15008KT 31/18 A2996 RMK A01 T03140179  RH  045%=      5-min Rain = 0
KES1 200342Z 15007KT 31/18 A2996 RMK A01 T03140179  RH  045%=      5-min Rain = 0
KES1 200343Z 15009KT 31/18 A2996 RMK A01 T03140180  RH  045%=      5-min Rain = 0
KES1 200344Z 15008KT 31/18 A2996 RMK A01 T03130179  RH  045%=      5-min Rain = 0
KES1 200345Z 15009KT 31/18 A2996 RMK A01 T03130179  RH  045%=      5-min Rain = 0
KES1 200346Z 14008KT 31/18 A2996 RMK A01 T03140179  RH  045%=      5-min Rain = 0
KES1 200347Z 15009KT 31/18 A2996 RMK A01 T03140179  RH  045%=      5-min Rain = 0
KES1 200348Z 15007KT 31/18 A2996 RMK A01 T03140180  RH  045%=      5-min Rain = 0
KES1 200349Z 15008KT 31/18 A2996 RMK A01 T03140180  RH  045%=      5-min Rain = 0
KES1 200350Z 15010KT 31/18 A2996 RMK A01 T03130180  RH  045%=      5-min Rain = 0
KES1 200351Z 15009KT 31/18 A2996 RMK A01 T03130179  RH  045%=      5-min Rain = 0
KES1 200352Z 15007KT 31/18 A2996 RMK A01 T03130180  RH  045%=      5-min Rain = 0
KES1 200353Z 15009KT 31/18 A2996 RMK A01 T03130180  RH  045%=      5-min Rain = 0
KES1 200354Z 15007KT 31/18 A2996 RMK A01 T03130180  RH  045%=      5-min Rain = 0
KES1 200355Z 15008KT 31/18 A2996 RMK A01 T03120180  RH  045%=      5-min Rain = 0
KES1 200356Z 14009KT 31/18 A2996 RMK A01 T03120180  RH  045%=      5-min Rain = 0
KES1 200357Z 15009KT 31/18 A2996 RMK A01 T03120180  RH  045%=      5-min Rain = 0
KES1 200358Z 14008KT 31/18 A2996 RMK A01 T03120180  RH  045%=      5-min Rain = 0
KES1 200359Z 14008KT 31/18 A2996 RMK A01 T03120180  RH  045%=      5-min Rain = 0
KES1 200400Z 14007KT 31/18 A2996 RMK A01 T03120180  RH  045%=      5-min Rain = 0
KES1 200401Z 14009KT 31/18 A2996 RMK A01 T03120180  RH  045%=      5-min Rain = 0
KES1 200402Z 15008KT 31/18 A2996 RMK A01 T03120180  RH  045%=      5-min Rain = 0
KES1 200403Z 14007KT 31/18 A2996 RMK A01 T03120181  RH  046%=      5-min Rain = 0
KES1 200404Z 14008KT 31/18 A2996 RMK A01 T03120181  RH  046%=      5-min Rain = 0
KES1 200405Z 15008KT 31/18 A2996 RMK A01 T03110181  RH  046%=      5-min Rain = 0
KES1 200406Z 14007KT 31/18 A2996 RMK A01 T03110180  RH  046%=      5-min Rain = 0
KES1 200407Z 14008KT 31/18 A2996 RMK A01 T03110181  RH  046%=      5-min Rain = 0
KES1 200408Z 15007KT 31/18 A2996 RMK A01 T03110181  RH  046%=      5-min Rain = 0
KES1 200409Z 14008KT 31/18 A2997 RMK A01 T03110181  RH  046%=      5-min Rain = 0
KES1 200410Z 14007KT 31/18 A2997 RMK A01 T03100182  RH  046%=      5-min Rain = 0
KES1 200411Z 14008KT 31/18 A2997 RMK A01 T03100181  RH  046%=      5-min Rain = 0
KES1 200412Z 14008KT 31/18 A2997 RMK A01 T03100181  RH  046%=      5-min Rain = 0
KES1 200413Z 15008KT 31/18 A2996 RMK A01 T03090180  RH  046%=      5-min Rain = 0
KES1 200414Z 14009KT 31/18 A2997 RMK A01 T03090180  RH  046%=      5-min Rain = 0
KES1 200415Z 14008KT 31/18 A2997 RMK A01 T03100180  RH  046%=      5-min Rain = 0
KES1 200416Z 15009KT 31/18 A2997 RMK A01 T03100180  RH  046%=      5-min Rain = 0
KES1 200417Z 15010KT 31/18 A2997 RMK A01 T03100179  RH  046%=      5-min Rain = 0
KES1 200418Z 14008KT 31/18 A2997 RMK A01 T03100179  RH  046%=      5-min Rain = 0
KES1 200419Z 15008KT 31/18 A2996 RMK A01 T03100179  RH  046%=      5-min Rain = 0
KES1 200420Z 15009KT 31/18 A2997 RMK A01 T03100180  RH  046%=      5-min Rain = 0
KES1 200421Z 15008KT 31/18 A2997 RMK A01 T03100180  RH  046%=      5-min Rain = 0
KES1 200422Z 15008KT 31/18 A2997 RMK A01 T03100180  RH  046%=      5-min Rain = 0
KES1 200423Z 15008KT 31/18 A2997 RMK A01 T03100180  RH  046%=      5-min Rain = 0
KES1 200424Z 15010KT 31/18 A2997 RMK A01 T03090179  RH  046%=      5-min Rain = 0
KES1 200425Z 15010KT 31/18 A2997 RMK A01 T03090178  RH  046%=      5-min Rain = 0
KES1 200426Z 15011KT 31/18 A2996 RMK A01 T03100178  RH  045%=      5-min Rain = 0
KES1 200427Z 15008KT 31/18 A2997 RMK A01 T03100179  RH  045%=      5-min Rain = 0
KES1 200428Z 15011KT 31/18 A2997 RMK A01 T03100179  RH  046%=      5-min Rain = 0
KES1 200429Z 15010KT 31/18 A2997 RMK A01 T03100179  RH  046%=      5-min Rain = 0
KES1 200430Z 15009KT 31/18 A2997 RMK A01 T03100179  RH  046%=      5-min Rain = 0
KES1 200431Z 15009KT 31/18 A2997 RMK A01 T03100179  RH  046%=      5-min Rain = 0
KES1 200432Z 15010KT 31/18 A2997 RMK A01 T03100179  RH  046%=      5-min Rain = 0
KES1 200433Z 15008KT 31/18 A2997 RMK A01 T03090178  RH  046%=      5-min Rain = 0
KES1 200434Z 15008KT 31/18 A2997 RMK A01 T03090179  RH  046%=      5-min Rain = 0
KES1 200435Z 15011KT 31/18 A2997 RMK A01 T03090179  RH  046%=      5-min Rain = 0
KES1 200436Z 15009KT 31/18 A2997 RMK A01 T03090178  RH  045%=      5-min Rain = 0
KES1 200437Z 15010KT 31/18 A2997 RMK A01 T03090178  RH  045%=      5-min Rain = 0
KES1 200438Z 15010KT 31/18 A2997 RMK A01 T03090178  RH  045%=      5-min Rain = 0
KES1 200439Z 15010KT 31/18 A2997 RMK A01 T03100178  RH  045%=      5-min Rain = 0
KES1 200440Z 15009KT 31/18 A2997 RMK A01 T03100179  RH  046%=      5-min Rain = 0
KES1 200441Z 15009KT 31/18 A2997 RMK A01 T03100178  RH  045%=      5-min Rain = 0
KES1 200442Z 15011KT 31/18 A2997 RMK A01 T03100178  RH  045%=      5-min Rain = 0
KES1 200443Z 15010KT 31/18 A2997 RMK A01 T03100177  RH  045%=      5-min Rain = 0
KES1 200444Z 15010KT 31/18 A2997 RMK A01 T03100178  RH  045%=      5-min Rain = 0
KES1 200445Z 16008KT 31/18 A2997 RMK A01 T03100178  RH  045%=      5-min Rain = 0
KES1 200446Z 15011KT 31/18 A2997 RMK A01 T03100178  RH  045%=      5-min Rain = 0
KES1 200447Z 15009KT 31/18 A2997 RMK A01 T03100178  RH  045%=      5-min Rain = 0
KES1 200448Z 16009KT 31/18 A2997 RMK A01 T03100178  RH  045%=      5-min Rain = 0
KES1 200449Z 15009KT 31/18 A2997 RMK A01 T03100178  RH  045%=      5-min Rain = 0
KES1 200450Z 15010KT 31/18 A2997 RMK A01 T03090178  RH  045%=      5-min Rain = 0
KES1 200451Z 15010KT 31/18 A2997 RMK A01 T03090178  RH  045%=      5-min Rain = 0
KES1 200452Z 15009KT 31/18 A2997 RMK A01 T03090178  RH  046%=      5-min Rain = 0
KES1 200453Z 15009KT 31/18 A2997 RMK A01 T03090179  RH  046%=      5-min Rain = 0
KES1 200454Z 15010KT 31/18 A2997 RMK A01 T03080178  RH  046%=      5-min Rain = 0
KES1 200455Z 15009KT 31/18 A2997 RMK A01 T03090179  RH  046%=      5-min Rain = 0
KES1 200456Z 15010KT 31/18 A2997 RMK A01 T03080179  RH  046%=      5-min Rain = 0
KES1 200457Z 15008KT 31/18 A2997 RMK A01 T03080179  RH  046%=      5-min Rain = 0
KES1 200458Z 15011KT 31/18 A2997 RMK A01 T03070178  RH  046%=      5-min Rain = 0
KES1 200459Z 16008KT 31/18 A2997 RMK A01 T03080178  RH  046%=      5-min Rain = 0

Page generated in 0.073 seconds.